<?xml version='1.0' encoding='UTF-8'?><gpx version="1.1" creator="JPX - https://github.com/jenetics/jpx" xmlns="http://www.topografix.com/GPX/1/1"><trk><trkseg><trkpt lat="45.77459599863479" lon="11.44306435656842"><ele>266.0</ele><time>2026-04-25T06:45:17.001Z</time></trkpt><trkpt lat="45.77452866938252" lon="11.443017996494023"><ele>266.0</ele><time>2026-04-25T06:45:40.001Z</time></trkpt><trkpt lat="45.77447668898068" lon="11.442965149404012"><ele>266.0</ele><time>2026-04-25T06:45:44.001Z</time></trkpt><trkpt lat="45.774430057338655" lon="11.44289475459251"><ele>266.0</ele><time>2026-04-25T06:45:49.001Z</time></trkpt><trkpt lat="45.774369157900004" lon="11.442865599308059"><ele>266.0</ele><time>2026-04-25T06:45:52.001Z</time></trkpt><trkpt lat="45.77430303843523" lon="11.4428244209127"><ele>266.0</ele><time>2026-04-25T06:45:56.001Z</time></trkpt><trkpt lat="45.77424157563039" lon="11.442763727302676"><ele>266.0</ele><time>2026-04-25T06:46:01.001Z</time></trkpt><trkpt lat="45.77418965012105" lon="11.442685252019691"><ele>266.0</ele><time>2026-04-25T06:46:08.001Z</time></trkpt><trkpt lat="45.77412978326948" lon="11.442621935873632"><ele>266.0</ele><time>2026-04-25T06:46:13.001Z</time></trkpt><trkpt lat="45.774068121807325" lon="11.442558126828088"><ele>266.0</ele><time>2026-04-25T06:46:18.001Z</time></trkpt><trkpt lat="45.774006751854095" lon="11.442509917814192"><ele>266.0</ele><time>2026-04-25T06:46:23.001Z</time></trkpt><trkpt lat="45.77395303698834" lon="11.442454678591861"><ele>266.0</ele><time>2026-04-25T06:46:28.001Z</time></trkpt><trkpt lat="45.773884932398765" lon="11.442398268081938"><ele>266.0</ele><time>2026-04-25T06:46:33Z</time></trkpt><trkpt lat="45.773805337266346" lon="11.442348513939754"><ele>266.0</ele><time>2026-04-25T06:46:39Z</time></trkpt><trkpt lat="45.773744285057475" lon="11.442326024678728"><ele>266.0</ele><time>2026-04-25T06:46:44Z</time></trkpt><trkpt lat="45.77367180833744" lon="11.442312722734085"><ele>266.0</ele><time>2026-04-25T06:46:50Z</time></trkpt><trkpt lat="45.773606683105164" lon="11.442349595575948"><ele>266.0</ele><time>2026-04-25T06:46:56Z</time></trkpt><trkpt lat="45.77357775021045" lon="11.442438319112034"><ele>266.0</ele><time>2026-04-25T06:47:01.001Z</time></trkpt><trkpt lat="45.77355239340334" lon="11.44252995961112"><ele>266.0</ele><time>2026-04-25T06:47:06.001Z</time></trkpt><trkpt lat="45.7735232120621" lon="11.442616822117092"><ele>266.0</ele><time>2026-04-25T06:47:11.001Z</time></trkpt><trkpt lat="45.773496401123445" lon="11.442701420832613"><ele>265.85714285714283</ele><time>2026-04-25T06:47:16.001Z</time></trkpt><trkpt lat="45.773469503110455" lon="11.44278617500497"><ele>265.7142857142857</ele><time>2026-04-25T06:47:21.001Z</time></trkpt><trkpt lat="45.77344158761226" lon="11.442872085410238"><ele>265.57142857142856</ele><time>2026-04-25T06:47:26Z</time></trkpt><trkpt lat="45.77341601893127" lon="11.442970746677531"><ele>265.42857142857144</ele><time>2026-04-25T06:47:31Z</time></trkpt><trkpt lat="45.77339556949018" lon="11.443056641173806"><ele>265.2857142857143</ele><time>2026-04-25T06:47:35Z</time></trkpt><trkpt lat="45.77335545741214" lon="11.443144462754507"><ele>265.1428571428571</ele><time>2026-04-25T06:47:40Z</time></trkpt><trkpt lat="45.773345081025006" lon="11.443252852121034"><ele>265.0</ele><time>2026-04-25T06:47:45Z</time></trkpt><trkpt lat="45.77332938283192" lon="11.44335663303905"><ele>264.99999999999994</ele><time>2026-04-25T06:47:50Z</time></trkpt><trkpt lat="45.77330316900902" lon="11.443456586917108"><ele>265.0</ele><time>2026-04-25T06:47:55Z</time></trkpt><trkpt lat="45.773287288483075" lon="11.443554578579691"><ele>265.0</ele><time>2026-04-25T06:48:00Z</time></trkpt><trkpt lat="45.77327755665509" lon="11.443664395467616"><ele>265.0</ele><time>2026-04-25T06:48:05Z</time></trkpt><trkpt lat="45.77325331025224" lon="11.443762585388692"><ele>265.0</ele><time>2026-04-25T06:48:10Z</time></trkpt><trkpt lat="45.773248596668346" lon="11.443867139496415"><ele>264.99999999999994</ele><time>2026-04-25T06:48:15Z</time></trkpt><trkpt lat="45.77322919652619" lon="11.44396799906301"><ele>265.0</ele><time>2026-04-25T06:48:20Z</time></trkpt><trkpt lat="45.77322478960788" lon="11.444067319770214"><ele>265.1428571428571</ele><time>2026-04-25T06:48:25Z</time></trkpt><trkpt lat="45.77321906245216" lon="11.444176304275425"><ele>265.2857142857143</ele><time>2026-04-25T06:48:30Z</time></trkpt><trkpt lat="45.7732015466277" lon="11.44426886785266"><ele>265.42857142857144</ele><time>2026-04-25T06:48:34Z</time></trkpt><trkpt lat="45.77318670098642" lon="11.44437267369541"><ele>265.57142857142856</ele><time>2026-04-25T06:48:39Z</time></trkpt><trkpt lat="45.77317727083405" lon="11.444476199457366"><ele>265.7142857142857</ele><time>2026-04-25T06:48:44Z</time></trkpt><trkpt lat="45.77316470356911" lon="11.444574475152365"><ele>265.85714285714283</ele><time>2026-04-25T06:48:49Z</time></trkpt><trkpt lat="45.77314827214492" lon="11.444667318591542"><ele>266.0</ele><time>2026-04-25T06:48:54Z</time></trkpt><trkpt lat="45.773120790279286" lon="11.444751146341638"><ele>265.7142857142857</ele><time>2026-04-25T06:48:58Z</time></trkpt><trkpt lat="45.773103571717904" lon="11.444847485405804"><ele>265.42857142857144</ele><time>2026-04-25T06:49:03Z</time></trkpt><trkpt lat="45.77307596848534" lon="11.444948582549856"><ele>265.1428571428571</ele><time>2026-04-25T06:49:08.001Z</time></trkpt><trkpt lat="45.77305229435396" lon="11.44505044663626"><ele>264.8571428571429</ele><time>2026-04-25T06:49:13.001Z</time></trkpt><trkpt lat="45.7730222879363" lon="11.445148702212222"><ele>264.57142857142856</ele><time>2026-04-25T06:49:18.001Z</time></trkpt><trkpt lat="45.773007629113465" lon="11.445250330878066"><ele>264.2857142857143</ele><time>2026-04-25T06:49:23.001Z</time></trkpt><trkpt lat="45.77298465532294" lon="11.44535504854746"><ele>264.0</ele><time>2026-04-25T06:49:28Z</time></trkpt><trkpt lat="45.772955681160326" lon="11.4454543856681"><ele>264.1428571428571</ele><time>2026-04-25T06:49:33Z</time></trkpt><trkpt lat="45.7729298835569" lon="11.445549528077281"><ele>264.2857142857143</ele><time>2026-04-25T06:49:38Z</time></trkpt><trkpt lat="45.772901898178134" lon="11.445636033623074"><ele>264.42857142857144</ele><time>2026-04-25T06:49:43Z</time></trkpt><trkpt lat="45.77288779926419" lon="11.445739298732146"><ele>264.57142857142856</ele><time>2026-04-25T06:49:48Z</time></trkpt><trkpt lat="45.77286823533195" lon="11.445844419400714"><ele>264.7142857142857</ele><time>2026-04-25T06:49:53Z</time></trkpt><trkpt lat="45.77286314935276" lon="11.445950760886122"><ele>264.85714285714283</ele><time>2026-04-25T06:49:58Z</time></trkpt><trkpt lat="45.77288447098642" lon="11.446048489220404"><ele>265.0</ele><time>2026-04-25T06:50:03Z</time></trkpt><trkpt lat="45.772920952099064" lon="11.446148328339834"><ele>264.99999999999994</ele><time>2026-04-25T06:50:08Z</time></trkpt><trkpt lat="45.77295820099169" lon="11.446233551422578"><ele>265.0</ele><time>2026-04-25T06:50:13Z</time></trkpt><trkpt lat="45.77300769039321" lon="11.446303019491827"><ele>265.0</ele><time>2026-04-25T06:50:18Z</time></trkpt><trkpt lat="45.77305897152325" lon="11.446385122074197"><ele>265.0</ele><time>2026-04-25T06:50:23Z</time></trkpt><trkpt lat="45.77311171852593" lon="11.446458797189484"><ele>265.0</ele><time>2026-04-25T06:50:27Z</time></trkpt><trkpt lat="45.773159699666365" lon="11.446521841640486"><ele>264.99999999999994</ele><time>2026-04-25T06:50:32Z</time></trkpt><trkpt lat="45.77320907070774" lon="11.446592641595485"><ele>265.0</ele><time>2026-04-25T06:50:37Z</time></trkpt><trkpt lat="45.773262582729245" lon="11.446669918335013"><ele>264.99999999999994</ele><time>2026-04-25T06:50:42Z</time></trkpt><trkpt lat="45.773314571612204" lon="11.446743041764027"><ele>265.0</ele><time>2026-04-25T06:50:47Z</time></trkpt><trkpt lat="45.77335568606523" lon="11.446811987937076"><ele>265.0</ele><time>2026-04-25T06:50:51Z</time></trkpt><trkpt lat="45.7733944646427" lon="11.446911802912862"><ele>265.0</ele><time>2026-04-25T06:50:56Z</time></trkpt><trkpt lat="45.7734440222824" lon="11.446973349431218"><ele>265.0</ele><time>2026-04-25T06:51:01Z</time></trkpt><trkpt lat="45.77348816048078" lon="11.447045597168948"><ele>264.99999999999994</ele><time>2026-04-25T06:51:06Z</time></trkpt><trkpt lat="45.77352804527349" lon="11.447133066261829"><ele>265.0</ele><time>2026-04-25T06:51:11.001Z</time></trkpt><trkpt lat="45.773558164664905" lon="11.44722877034084"><ele>264.99999999999994</ele><time>2026-04-25T06:51:16.001Z</time></trkpt><trkpt lat="45.77358938733849" lon="11.44731016602127"><ele>265.0</ele><time>2026-04-25T06:51:20.001Z</time></trkpt><trkpt lat="45.77361843982325" lon="11.447404696390324"><ele>265.0</ele><time>2026-04-25T06:51:24.001Z</time></trkpt><trkpt lat="45.773627481947265" lon="11.447503446321697"><ele>265.0</ele><time>2026-04-25T06:51:29.001Z</time></trkpt><trkpt lat="45.77365195619319" lon="11.44760772556457"><ele>265.0</ele><time>2026-04-25T06:51:35.001Z</time></trkpt><trkpt lat="45.77364689643825" lon="11.447710675806762"><ele>264.99999999999994</ele><time>2026-04-25T06:51:39.001Z</time></trkpt><trkpt lat="45.773637823402474" lon="11.447809522215486"><ele>265.0</ele><time>2026-04-25T06:51:44.001Z</time></trkpt><trkpt lat="45.77363691329928" lon="11.447908208621024"><ele>264.85714285714283</ele><time>2026-04-25T06:51:49.001Z</time></trkpt><trkpt lat="45.77362851943014" lon="11.448008577630397"><ele>264.7142857142857</ele><time>2026-04-25T06:51:54Z</time></trkpt><trkpt lat="45.773615548290906" lon="11.4481146178368"><ele>264.57142857142856</ele><time>2026-04-25T06:51:59Z</time></trkpt><trkpt lat="45.773609356629166" lon="11.448212094473652"><ele>264.42857142857144</ele><time>2026-04-25T06:52:04Z</time></trkpt><trkpt lat="45.77361877090849" lon="11.448311919587052"><ele>264.2857142857143</ele><time>2026-04-25T06:52:09Z</time></trkpt><trkpt lat="45.773627666485844" lon="11.448413830566865"><ele>264.1428571428571</ele><time>2026-04-25T06:52:14Z</time></trkpt><trkpt lat="45.7736663108732" lon="11.448502173404528"><ele>264.0</ele><time>2026-04-25T06:52:19Z</time></trkpt><trkpt lat="45.77370812038621" lon="11.448581823953068"><ele>264.0</ele><time>2026-04-25T06:52:24Z</time></trkpt><trkpt lat="45.77375936587775" lon="11.44866362981511"><ele>264.0</ele><time>2026-04-25T06:52:29Z</time></trkpt><trkpt lat="45.77381152526851" lon="11.448737608338124"><ele>264.0</ele><time>2026-04-25T06:52:35Z</time></trkpt><trkpt lat="45.773853622598175" lon="11.448823517815569"><ele>264.0</ele><time>2026-04-25T06:52:40Z</time></trkpt><trkpt lat="45.773909889540434" lon="11.448899352194767"><ele>264.0</ele><time>2026-04-25T06:52:45Z</time></trkpt><trkpt lat="45.77396351947088" lon="11.448964433535442"><ele>264.0</ele><time>2026-04-25T06:52:50Z</time></trkpt><trkpt lat="45.77400893961019" lon="11.44904514893419"><ele>264.0</ele><time>2026-04-25T06:52:55Z</time></trkpt><trkpt lat="45.774067748305626" lon="11.449113318607946"><ele>263.85714285714283</ele><time>2026-04-25T06:53:00Z</time></trkpt><trkpt lat="45.77412290164949" lon="11.449158856075377"><ele>263.7142857142857</ele><time>2026-04-25T06:53:04Z</time></trkpt><trkpt lat="45.77418581347999" lon="11.449222720980703"><ele>263.57142857142856</ele><time>2026-04-25T06:53:09Z</time></trkpt><trkpt lat="45.77424520485298" lon="11.449284739640072"><ele>263.42857142857144</ele><time>2026-04-25T06:53:14Z</time></trkpt><trkpt lat="45.774303995406676" lon="11.449326871102803"><ele>263.2857142857143</ele><time>2026-04-25T06:53:19.001Z</time></trkpt><trkpt lat="45.77436849475192" lon="11.449379472122983"><ele>263.1428571428571</ele><time>2026-04-25T06:53:24.001Z</time></trkpt><trkpt lat="45.77441892365766" lon="11.44945955870007"><ele>263.0</ele><time>2026-04-25T06:53:29.001Z</time></trkpt><trkpt lat="45.77448823860338" lon="11.449505495339128"><ele>263.2857142857143</ele><time>2026-04-25T06:53:34.001Z</time></trkpt><trkpt lat="45.77453957052359" lon="11.449572592434492"><ele>263.57142857142856</ele><time>2026-04-25T06:53:39.001Z</time></trkpt><trkpt lat="45.77458491658415" lon="11.449648012124587"><ele>263.85714285714283</ele><time>2026-04-25T06:53:44.001Z</time></trkpt><trkpt lat="45.7746184384004" lon="11.449739103777183"><ele>264.1428571428571</ele><time>2026-04-25T06:53:50Z</time></trkpt><trkpt lat="45.77465944710076" lon="11.44982826385107"><ele>264.42857142857144</ele><time>2026-04-25T06:53:55Z</time></trkpt><trkpt lat="45.774717437975845" lon="11.44978719041051"><ele>264.71428571428567</ele><time>2026-04-25T06:53:58Z</time></trkpt><trkpt lat="45.77478887178456" lon="11.449807708954427"><ele>265.0</ele><time>2026-04-25T06:54:03Z</time></trkpt><trkpt lat="45.77484509409949" lon="11.449856420967558"><ele>264.99999999999994</ele><time>2026-04-25T06:54:08Z</time></trkpt><trkpt lat="45.774905813814435" lon="11.449905681323006"><ele>265.0</ele><time>2026-04-25T06:54:13Z</time></trkpt><trkpt lat="45.77496212606884" lon="11.449954651054437"><ele>265.0</ele><time>2026-04-25T06:54:18Z</time></trkpt><trkpt lat="45.775021358785466" lon="11.45000150193037"><ele>265.0</ele><time>2026-04-25T06:54:23Z</time></trkpt><trkpt lat="45.77508322766146" lon="11.45004642798263"><ele>265.0</ele><time>2026-04-25T06:54:28Z</time></trkpt><trkpt lat="45.77514883589759" lon="11.450067608017722"><ele>264.99999999999994</ele><time>2026-04-25T06:54:33Z</time></trkpt><trkpt lat="45.77522084934221" lon="11.45007305411409"><ele>265.0</ele><time>2026-04-25T06:54:38Z</time></trkpt><trkpt lat="45.7752916427382" lon="11.450081111578381"><ele>266.1428571428571</ele><time>2026-04-25T06:54:43Z</time></trkpt><trkpt lat="45.77535631302551" lon="11.450056244852933"><ele>267.2857142857143</ele><time>2026-04-25T06:54:48Z</time></trkpt><trkpt lat="45.77540810581596" lon="11.450129909001687"><ele>268.42857142857144</ele><time>2026-04-25T06:54:53Z</time></trkpt><trkpt lat="45.77546889075359" lon="11.45018165214331"><ele>269.57142857142856</ele><time>2026-04-25T06:54:58Z</time></trkpt><trkpt lat="45.77553870673722" lon="11.45020549369624"><ele>270.7142857142857</ele><time>2026-04-25T06:55:03Z</time></trkpt><trkpt lat="45.77559627278979" lon="11.45024430791502"><ele>271.85714285714283</ele><time>2026-04-25T06:55:08Z</time></trkpt><trkpt lat="45.77565546748203" lon="11.450308526148131"><ele>273.0</ele><time>2026-04-25T06:55:13Z</time></trkpt><trkpt lat="45.775715902769655" lon="11.450355519468866"><ele>273.0</ele><time>2026-04-25T06:55:19Z</time></trkpt><trkpt lat="45.77577849815431" lon="11.450388278483404"><ele>273.0</ele><time>2026-04-25T06:55:24.001Z</time></trkpt><trkpt lat="45.77582929737476" lon="11.45044703746213"><ele>273.0</ele><time>2026-04-25T06:55:29.001Z</time></trkpt><trkpt lat="45.77584962165263" lon="11.450532902335599"><ele>273.0</ele><time>2026-04-25T06:55:34.001Z</time></trkpt><trkpt lat="45.77583757224369" lon="11.450625184775985"><ele>273.0</ele><time>2026-04-25T06:55:39.001Z</time></trkpt><trkpt lat="45.775819875546304" lon="11.450725972028374"><ele>273.0</ele><time>2026-04-25T06:55:45Z</time></trkpt><trkpt lat="45.7757976127705" lon="11.450827589958406"><ele>273.0</ele><time>2026-04-25T06:55:51Z</time></trkpt><trkpt lat="45.775775112520876" lon="11.4509276779011"><ele>273.42857142857144</ele><time>2026-04-25T06:55:57Z</time></trkpt><trkpt lat="45.77574863957481" lon="11.451028553114254"><ele>273.8571428571429</ele><time>2026-04-25T06:56:03Z</time></trkpt><trkpt lat="45.775713052198974" lon="11.45111431966461"><ele>274.2857142857143</ele><time>2026-04-25T06:56:09Z</time></trkpt><trkpt lat="45.77567074847917" lon="11.451194025989007"><ele>274.7142857142857</ele><time>2026-04-25T06:56:14Z</time></trkpt><trkpt lat="45.77560792140657" lon="11.451252543268625"><ele>275.14285714285717</ele><time>2026-04-25T06:56:20Z</time></trkpt><trkpt lat="45.775544267074416" lon="11.451303652196678"><ele>275.57142857142856</ele><time>2026-04-25T06:56:26Z</time></trkpt><trkpt lat="45.775479927493464" lon="11.451320865280959"><ele>276.0</ele><time>2026-04-25T06:56:31Z</time></trkpt><trkpt lat="45.77545860408055" lon="11.451407840993301"><ele>277.14285714285717</ele><time>2026-04-25T06:56:38Z</time></trkpt><trkpt lat="45.775512283557184" lon="11.451461676039735"><ele>278.28571428571433</ele><time>2026-04-25T06:56:44Z</time></trkpt><trkpt lat="45.77557753857051" lon="11.45151029818296"><ele>279.42857142857144</ele><time>2026-04-25T06:56:51Z</time></trkpt><trkpt lat="45.77564257451291" lon="11.451565013543386"><ele>280.57142857142856</ele><time>2026-04-25T06:56:57Z</time></trkpt><trkpt lat="45.77570070992061" lon="11.451613088916048"><ele>281.71428571428567</ele><time>2026-04-25T06:57:03Z</time></trkpt><trkpt lat="45.77574960197052" lon="11.451670760554007"><ele>282.85714285714283</ele><time>2026-04-25T06:57:08Z</time></trkpt><trkpt lat="45.77580911251776" lon="11.451714509602928"><ele>284.0</ele><time>2026-04-25T06:57:14Z</time></trkpt><trkpt lat="45.77586899320823" lon="11.451744049637105"><ele>284.0</ele><time>2026-04-25T06:57:19Z</time></trkpt><trkpt lat="45.77593715068722" lon="11.451782584045205"><ele>284.0</ele><time>2026-04-25T06:57:26Z</time></trkpt><trkpt lat="45.77600408071062" lon="11.45182471286655"><ele>284.0</ele><time>2026-04-25T06:57:32Z</time></trkpt><trkpt lat="45.776071317149245" lon="11.451858376371058"><ele>284.0</ele><time>2026-04-25T06:57:40Z</time></trkpt><trkpt lat="45.77614420300487" lon="11.4518539692674"><ele>284.0</ele><time>2026-04-25T06:57:46Z</time></trkpt><trkpt lat="45.77621326369646" lon="11.45188669752017"><ele>284.0</ele><time>2026-04-25T06:57:52Z</time></trkpt><trkpt lat="45.77627190973599" lon="11.451932446363323"><ele>284.0</ele><time>2026-04-25T06:57:59Z</time></trkpt><trkpt lat="45.77631746041385" lon="11.452006983614233"><ele>286.0</ele><time>2026-04-25T06:58:05Z</time></trkpt><trkpt lat="45.776338500305556" lon="11.452109293801923"><ele>288.0</ele><time>2026-04-25T06:58:13Z</time></trkpt><trkpt lat="45.776370685707256" lon="11.452187698875035"><ele>290.0</ele><time>2026-04-25T06:58:20Z</time></trkpt><trkpt lat="45.776421328745926" lon="11.45224231327396"><ele>292.0</ele><time>2026-04-25T06:58:26Z</time></trkpt><trkpt lat="45.7764854128571" lon="11.452277146580236"><ele>294.0</ele><time>2026-04-25T06:58:32Z</time></trkpt><trkpt lat="45.7765424541149" lon="11.452348166621805"><ele>296.0</ele><time>2026-04-25T06:58:37Z</time></trkpt><trkpt lat="45.77659085455412" lon="11.45241084338879"><ele>298.0</ele><time>2026-04-25T06:58:44Z</time></trkpt><trkpt lat="45.77663656913858" lon="11.452476537356647"><ele>299.57142857142856</ele><time>2026-04-25T06:58:51Z</time></trkpt><trkpt lat="45.77667669109455" lon="11.452556613488888"><ele>301.1428571428571</ele><time>2026-04-25T06:58:56Z</time></trkpt><trkpt lat="45.77669817398151" lon="11.45264349093001"><ele>302.7142857142857</ele><time>2026-04-25T06:59:03Z</time></trkpt><trkpt lat="45.77671348312302" lon="11.452741412880965"><ele>304.2857142857143</ele><time>2026-04-25T06:59:11Z</time></trkpt><trkpt lat="45.77672566127698" lon="11.452842932452139"><ele>305.8571428571429</ele><time>2026-04-25T06:59:17Z</time></trkpt><trkpt lat="45.77672472412005" lon="11.452933927738364"><ele>307.42857142857144</ele><time>2026-04-25T06:59:23Z</time></trkpt><trkpt lat="45.776708344961946" lon="11.45303262808174"><ele>309.0</ele><time>2026-04-25T06:59:29Z</time></trkpt><trkpt lat="45.77670136041969" lon="11.453135387832809"><ele>310.14285714285717</ele><time>2026-04-25T06:59:35Z</time></trkpt><trkpt lat="45.7767427438765" lon="11.453220576514717"><ele>311.2857142857143</ele><time>2026-04-25T06:59:42Z</time></trkpt><trkpt lat="45.77679540115459" lon="11.453278933827939"><ele>312.42857142857144</ele><time>2026-04-25T06:59:48Z</time></trkpt><trkpt lat="45.77685543880294" lon="11.45331149104453"><ele>313.57142857142856</ele><time>2026-04-25T06:59:54Z</time></trkpt><trkpt lat="45.77690260852014" lon="11.453375160057986"><ele>314.7142857142857</ele><time>2026-04-25T07:00:00Z</time></trkpt><trkpt lat="45.77696544274237" lon="11.453421744239463"><ele>315.8571428571429</ele><time>2026-04-25T07:00:08Z</time></trkpt><trkpt lat="45.77703122976514" lon="11.45345924027566"><ele>317.0</ele><time>2026-04-25T07:00:15Z</time></trkpt><trkpt lat="45.777084252681085" lon="11.453524725216036"><ele>320.14285714285717</ele><time>2026-04-25T07:00:21Z</time></trkpt><trkpt lat="45.77712978358893" lon="11.453599623031655"><ele>323.2857142857143</ele><time>2026-04-25T07:00:28Z</time></trkpt><trkpt lat="45.77710817319554" lon="11.453687365472783"><ele>326.42857142857144</ele><time>2026-04-25T07:00:36Z</time></trkpt><trkpt lat="45.777049849806964" lon="11.453740797569825"><ele>329.57142857142856</ele><time>2026-04-25T07:00:54Z</time></trkpt><trkpt lat="45.77699127863999" lon="11.453785653014627"><ele>332.7142857142857</ele><time>2026-04-25T07:01:00Z</time></trkpt><trkpt lat="45.77692151905573" lon="11.453810417471471"><ele>335.85714285714283</ele><time>2026-04-25T07:01:06Z</time></trkpt><trkpt lat="45.77686657750604" lon="11.453865026496002"><ele>339.0</ele><time>2026-04-25T07:01:12Z</time></trkpt><trkpt lat="45.776809046737164" lon="11.453912078819101"><ele>339.0</ele><time>2026-04-25T07:01:18Z</time></trkpt><trkpt lat="45.776763021824216" lon="11.453992192973798"><ele>339.0</ele><time>2026-04-25T07:01:24Z</time></trkpt><trkpt lat="45.77671420998082" lon="11.454051285137918"><ele>339.0</ele><time>2026-04-25T07:01:30Z</time></trkpt><trkpt lat="45.77668371334369" lon="11.454133007754661"><ele>339.0</ele><time>2026-04-25T07:01:36Z</time></trkpt><trkpt lat="45.77663785217203" lon="11.4542086250426"><ele>339.0</ele><time>2026-04-25T07:01:42Z</time></trkpt><trkpt lat="45.776600713199144" lon="11.454282407141879"><ele>339.0</ele><time>2026-04-25T07:01:48Z</time></trkpt><trkpt lat="45.77658700274428" lon="11.454374161570838"><ele>339.0</ele><time>2026-04-25T07:01:53Z</time></trkpt><trkpt lat="45.77656695177124" lon="11.454461755581976"><ele>339.0</ele><time>2026-04-25T07:01:58Z</time></trkpt><trkpt lat="45.77655338766117" lon="11.454559441549739"><ele>339.0</ele><time>2026-04-25T07:02:04Z</time></trkpt><trkpt lat="45.77655278376603" lon="11.454658171634566"><ele>339.0</ele><time>2026-04-25T07:02:10Z</time></trkpt><trkpt lat="45.776549823316756" lon="11.454765127130067"><ele>339.0</ele><time>2026-04-25T07:02:16Z</time></trkpt><trkpt lat="45.7765489123404" lon="11.454857734077544"><ele>339.0</ele><time>2026-04-25T07:02:23Z</time></trkpt><trkpt lat="45.77655350407698" lon="11.454948113112867"><ele>339.0</ele><time>2026-04-25T07:02:29Z</time></trkpt><trkpt lat="45.77657068100273" lon="11.455042597821755"><ele>339.0</ele><time>2026-04-25T07:02:35Z</time></trkpt><trkpt lat="45.77659314395113" lon="11.455144205320282"><ele>341.0</ele><time>2026-04-25T07:02:41Z</time></trkpt><trkpt lat="45.77661799580935" lon="11.455240044451664"><ele>343.0</ele><time>2026-04-25T07:02:47Z</time></trkpt><trkpt lat="45.776641648723356" lon="11.455324426246294"><ele>345.0</ele><time>2026-04-25T07:02:52Z</time></trkpt><trkpt lat="45.77665912924121" lon="11.455420737139239"><ele>347.0</ele><time>2026-04-25T07:02:58Z</time></trkpt><trkpt lat="45.776689813111005" lon="11.455515851851658"><ele>349.0</ele><time>2026-04-25T07:03:03Z</time></trkpt><trkpt lat="45.7767206934251" lon="11.455602790465939"><ele>351.0</ele><time>2026-04-25T07:03:08Z</time></trkpt><trkpt lat="45.7767475912673" lon="11.455701742476974"><ele>353.0</ele><time>2026-04-25T07:03:13Z</time></trkpt><trkpt lat="45.77677484052901" lon="11.455794747853025"><ele>353.2857142857143</ele><time>2026-04-25T07:03:18Z</time></trkpt><trkpt lat="45.776793347242645" lon="11.455892840037926"><ele>353.5714285714286</ele><time>2026-04-25T07:03:24Z</time></trkpt><trkpt lat="45.77680464474586" lon="11.456000387405174"><ele>353.8571428571429</ele><time>2026-04-25T07:03:30Z</time></trkpt><trkpt lat="45.776822579640346" lon="11.456088037006436"><ele>354.1428571428571</ele><time>2026-04-25T07:03:35Z</time></trkpt><trkpt lat="45.77683001607349" lon="11.456197074907015"><ele>354.42857142857144</ele><time>2026-04-25T07:03:42Z</time></trkpt><trkpt lat="45.77682160219014" lon="11.456304348743389"><ele>354.7142857142857</ele><time>2026-04-25T07:03:48Z</time></trkpt><trkpt lat="45.77683028658498" lon="11.456396622751992"><ele>355.0</ele><time>2026-04-25T07:03:54Z</time></trkpt><trkpt lat="45.776845660903774" lon="11.456492407230572"><ele>359.0</ele><time>2026-04-25T07:03:59Z</time></trkpt><trkpt lat="45.77686680804538" lon="11.456585424283455"><ele>363.0</ele><time>2026-04-25T07:04:04Z</time></trkpt><trkpt lat="45.77688521233933" lon="11.4566856857963"><ele>367.0</ele><time>2026-04-25T07:04:09Z</time></trkpt><trkpt lat="45.77691241497035" lon="11.456772488950909"><ele>371.0</ele><time>2026-04-25T07:04:14Z</time></trkpt><trkpt lat="45.776927967665344" lon="11.456868816132948"><ele>375.0</ele><time>2026-04-25T07:04:19Z</time></trkpt><trkpt lat="45.77693979682282" lon="11.456959575035944"><ele>379.0</ele><time>2026-04-25T07:04:24Z</time></trkpt><trkpt lat="45.776964981679285" lon="11.457045017681192"><ele>383.0</ele><time>2026-04-25T07:04:29Z</time></trkpt><trkpt lat="45.77697744845659" lon="11.457137632214693"><ele>383.0</ele><time>2026-04-25T07:04:34Z</time></trkpt><trkpt lat="45.77699275313984" lon="11.457226825744554"><ele>383.0</ele><time>2026-04-25T07:04:39Z</time></trkpt><trkpt lat="45.77701793489993" lon="11.457311729290746"><ele>383.0</ele><time>2026-04-25T07:04:44Z</time></trkpt><trkpt lat="45.77703088909532" lon="11.457401136848773"><ele>383.0</ele><time>2026-04-25T07:04:49Z</time></trkpt><trkpt lat="45.77706140493238" lon="11.45749452736159"><ele>383.0</ele><time>2026-04-25T07:04:55Z</time></trkpt><trkpt lat="45.77707381125967" lon="11.45758469573066"><ele>383.0</ele><time>2026-04-25T07:06:21Z</time></trkpt><trkpt lat="45.77709679464474" lon="11.45767368435509"><ele>383.0</ele><time>2026-04-25T07:06:26Z</time></trkpt><trkpt lat="45.77712231758023" lon="11.457771197401279"><ele>383.0</ele><time>2026-04-25T07:06:31.999Z</time></trkpt><trkpt lat="45.77714699424647" lon="11.457856401157835"><ele>383.0</ele><time>2026-04-25T07:06:37.999Z</time></trkpt><trkpt lat="45.777185663597116" lon="11.45794173180182"><ele>383.0</ele><time>2026-04-25T07:06:44.999Z</time></trkpt><trkpt lat="45.777227839961625" lon="11.458008826070712"><ele>383.0</ele><time>2026-04-25T07:06:49.998Z</time></trkpt><trkpt lat="45.777272445256486" lon="11.458087837508819"><ele>383.0</ele><time>2026-04-25T07:06:55.998Z</time></trkpt><trkpt lat="45.777309824336164" lon="11.458169713945303"><ele>383.0</ele><time>2026-04-25T07:07:01.998Z</time></trkpt><trkpt lat="45.77735008375571" lon="11.458246660290708"><ele>383.0</ele><time>2026-04-25T07:07:06.998Z</time></trkpt><trkpt lat="45.77738378042988" lon="11.45833276448905"><ele>382.57142857142856</ele><time>2026-04-25T07:07:12.998Z</time></trkpt><trkpt lat="45.777401977337746" lon="11.458420652500052"><ele>382.1428571428571</ele><time>2026-04-25T07:07:17.998Z</time></trkpt><trkpt lat="45.77742178823347" lon="11.458521507168618"><ele>381.7142857142857</ele><time>2026-04-25T07:07:22.998Z</time></trkpt><trkpt lat="45.77744875132102" lon="11.458614142790463"><ele>381.2857142857143</ele><time>2026-04-25T07:07:28.998Z</time></trkpt><trkpt lat="45.7774626846774" lon="11.458714204149707"><ele>380.8571428571429</ele><time>2026-04-25T07:07:34.998Z</time></trkpt><trkpt lat="45.77747377114428" lon="11.458817839686096"><ele>380.42857142857144</ele><time>2026-04-25T07:07:40.998Z</time></trkpt><trkpt lat="45.77748547488489" lon="11.458917034089527"><ele>380.0</ele><time>2026-04-25T07:07:46.998Z</time></trkpt><trkpt lat="45.77749375104787" lon="11.459009511839465"><ele>380.0</ele><time>2026-04-25T07:07:51.998Z</time></trkpt><trkpt lat="45.77750896874457" lon="11.459097926684406"><ele>380.0</ele><time>2026-04-25T07:07:56.998Z</time></trkpt><trkpt lat="45.777524373313625" lon="11.45920449925039"><ele>380.0</ele><time>2026-04-25T07:08:01.998Z</time></trkpt><trkpt lat="45.77755620571626" lon="11.459300627315882"><ele>380.0</ele><time>2026-04-25T07:08:07.999Z</time></trkpt><trkpt lat="45.77757655890992" lon="11.45941002194375"><ele>380.0</ele><time>2026-04-25T07:08:13.999Z</time></trkpt><trkpt lat="45.77758399086022" lon="11.459501647709173"><ele>380.0</ele><time>2026-04-25T07:08:17.999Z</time></trkpt><trkpt lat="45.77757553310659" lon="11.459604306303378"><ele>380.0</ele><time>2026-04-25T07:08:23.999Z</time></trkpt><trkpt lat="45.777557842395304" lon="11.459690999697807"><ele>380.0</ele><time>2026-04-25T07:08:28.999Z</time></trkpt><trkpt lat="45.77754793086483" lon="11.459782488846011"><ele>380.0</ele><time>2026-04-25T07:08:33.999Z</time></trkpt><trkpt lat="45.77755281172818" lon="11.459878877075266"><ele>380.0</ele><time>2026-04-25T07:08:38.999Z</time></trkpt><trkpt lat="45.77755559834402" lon="11.459978784373293"><ele>380.0</ele><time>2026-04-25T07:08:43.999Z</time></trkpt><trkpt lat="45.777560977459665" lon="11.460069491162898"><ele>380.0</ele><time>2026-04-25T07:08:48.999Z</time></trkpt><trkpt lat="45.77756812969277" lon="11.460161319798248"><ele>380.0</ele><time>2026-04-25T07:08:53.999Z</time></trkpt><trkpt lat="45.77755992005499" lon="11.460259167672891"><ele>380.0</ele><time>2026-04-25T07:09:00.999Z</time></trkpt><trkpt lat="45.77755565643299" lon="11.460360628414321"><ele>380.42857142857144</ele><time>2026-04-25T07:09:06.999Z</time></trkpt><trkpt lat="45.77756527081191" lon="11.460462716740475"><ele>380.8571428571429</ele><time>2026-04-25T07:09:12.999Z</time></trkpt><trkpt lat="45.77755271894027" lon="11.460560867178787"><ele>381.2857142857143</ele><time>2026-04-25T07:09:17.999Z</time></trkpt><trkpt lat="45.77752911908527" lon="11.460659176732253"><ele>381.7142857142857</ele><time>2026-04-25T07:09:22.999Z</time></trkpt><trkpt lat="45.77750401259539" lon="11.460745387871263"><ele>382.1428571428571</ele><time>2026-04-25T07:09:27.999Z</time></trkpt><trkpt lat="45.77748409207001" lon="11.460834475602164"><ele>382.57142857142856</ele><time>2026-04-25T07:09:32.999Z</time></trkpt><trkpt lat="45.777457242292996" lon="11.46091769744527"><ele>383.0</ele><time>2026-04-25T07:09:37.999Z</time></trkpt><trkpt lat="45.77744650771658" lon="11.461011937117492"><ele>383.0</ele><time>2026-04-25T07:09:42.999Z</time></trkpt><trkpt lat="45.777411800296164" lon="11.46109235619676"><ele>383.0</ele><time>2026-04-25T07:09:47.999Z</time></trkpt><trkpt lat="45.77734418132027" lon="11.461086421974088"><ele>383.0</ele><time>2026-04-25T07:09:52.999Z</time></trkpt><trkpt lat="45.77726921358394" lon="11.461081033880358"><ele>383.0</ele><time>2026-04-25T07:09:57.999Z</time></trkpt><trkpt lat="45.77719936019825" lon="11.461087000339514"><ele>383.0</ele><time>2026-04-25T07:10:02.999Z</time></trkpt><trkpt lat="45.777136115641696" lon="11.461115637308072"><ele>383.0</ele><time>2026-04-25T07:10:07.999Z</time></trkpt><trkpt lat="45.777090844199655" lon="11.461197488298293"><ele>383.0</ele><time>2026-04-25T07:10:13.999Z</time></trkpt><trkpt lat="45.777064140249706" lon="11.461286904532368"><ele>384.0</ele><time>2026-04-25T07:10:19.999Z</time></trkpt><trkpt lat="45.77702467673257" lon="11.461359059804945"><ele>385.0</ele><time>2026-04-25T07:10:25.999Z</time></trkpt><trkpt lat="45.7769931755804" lon="11.461438808848964"><ele>386.0</ele><time>2026-04-25T07:10:30.999Z</time></trkpt><trkpt lat="45.776931783798204" lon="11.461496567033013"><ele>387.0</ele><time>2026-04-25T07:10:36.999Z</time></trkpt><trkpt lat="45.77687790072067" lon="11.461544855154061"><ele>388.0</ele><time>2026-04-25T07:10:40.999Z</time></trkpt><trkpt lat="45.77683983327641" lon="11.461621573029817"><ele>389.0</ele><time>2026-04-25T07:10:45.999Z</time></trkpt><trkpt lat="45.77679726960035" lon="11.461691282014376"><ele>390.0</ele><time>2026-04-25T07:10:50.999Z</time></trkpt><trkpt lat="45.77674779881411" lon="11.461749719213564"><ele>390.0</ele><time>2026-04-25T07:10:55.999Z</time></trkpt><trkpt lat="45.77669961065596" lon="11.461815971018467"><ele>390.0</ele><time>2026-04-25T07:11:08.999Z</time></trkpt><trkpt lat="45.776658431411" lon="11.461886201530755"><ele>390.0</ele><time>2026-04-25T07:11:14.999Z</time></trkpt><trkpt lat="45.776613382469776" lon="11.461965022475736"><ele>390.0</ele><time>2026-04-25T07:11:20.999Z</time></trkpt><trkpt lat="45.77657595601898" lon="11.462041250390278"><ele>390.0</ele><time>2026-04-25T07:11:25.999Z</time></trkpt><trkpt lat="45.776540705653595" lon="11.462120873232115"><ele>390.0</ele><time>2026-04-25T07:11:30.999Z</time></trkpt><trkpt lat="45.77649472833692" lon="11.462193758626132"><ele>390.0</ele><time>2026-04-25T07:11:35.999Z</time></trkpt><trkpt lat="45.7764466509965" lon="11.46227221692497"><ele>390.42857142857144</ele><time>2026-04-25T07:11:42.999Z</time></trkpt><trkpt lat="45.77641551164533" lon="11.462351169479467"><ele>390.85714285714283</ele><time>2026-04-25T07:11:47.999Z</time></trkpt><trkpt lat="45.77639794183554" lon="11.462461461360647"><ele>391.28571428571433</ele><time>2026-04-25T07:11:52.999Z</time></trkpt><trkpt lat="45.77642384872871" lon="11.462572452764993"><ele>391.7142857142857</ele><time>2026-04-25T07:11:57.999Z</time></trkpt><trkpt lat="45.776432458869685" lon="11.462662315600598"><ele>392.14285714285717</ele><time>2026-04-25T07:12:01.999Z</time></trkpt><trkpt lat="45.77644482965626" lon="11.462750828138104"><ele>392.5714285714286</ele><time>2026-04-25T07:12:06.999Z</time></trkpt><trkpt lat="45.776445666667804" lon="11.46284657120216"><ele>393.0</ele><time>2026-04-25T07:12:11.999Z</time></trkpt><trkpt lat="45.77644200631032" lon="11.462948001363875"><ele>393.00000000000006</ele><time>2026-04-25T07:12:17.999Z</time></trkpt><trkpt lat="45.77645381986078" lon="11.463048836039901"><ele>393.0</ele><time>2026-04-25T07:12:24.999Z</time></trkpt><trkpt lat="45.77646987457026" lon="11.46314025331486"><ele>393.0</ele><time>2026-04-25T07:12:29.999Z</time></trkpt><trkpt lat="45.77649796394944" lon="11.463225767870464"><ele>393.0</ele><time>2026-04-25T07:12:35.999Z</time></trkpt><trkpt lat="45.776561873745166" lon="11.463271491364418"><ele>393.0</ele><time>2026-04-25T07:12:42.999Z</time></trkpt><trkpt lat="45.7766240215952" lon="11.46331536032737"><ele>393.00000000000006</ele><time>2026-04-25T07:12:48.999Z</time></trkpt><trkpt lat="45.77668550150391" lon="11.463287092800073"><ele>393.0</ele><time>2026-04-25T07:13:06.999Z</time></trkpt><trkpt lat="45.776753493158026" lon="11.463322259255012"><ele>393.00000000000006</ele><time>2026-04-25T07:13:12.999Z</time></trkpt><trkpt lat="45.77680906852251" lon="11.463375887232917"><ele>393.0</ele><time>2026-04-25T07:13:17.999Z</time></trkpt><trkpt lat="45.776859349186466" lon="11.463436924454507"><ele>393.0</ele><time>2026-04-25T07:13:21.999Z</time></trkpt><trkpt lat="45.77692591678477" lon="11.463432252578006"><ele>393.0</ele><time>2026-04-25T07:13:26.999Z</time></trkpt><trkpt lat="45.77698580511787" lon="11.463466175531886"><ele>393.0</ele><time>2026-04-25T07:13:31.999Z</time></trkpt><trkpt lat="45.77705653952292" lon="11.463497844937654"><ele>393.00000000000006</ele><time>2026-04-25T07:13:36.999Z</time></trkpt><trkpt lat="45.777117891600255" lon="11.46354067722126"><ele>393.0</ele><time>2026-04-25T07:13:40.999Z</time></trkpt><trkpt lat="45.777184017385125" lon="11.463549846842215"><ele>395.5714285714286</ele><time>2026-04-25T07:13:44.999Z</time></trkpt><trkpt lat="45.777253010561566" lon="11.463577741368002"><ele>398.14285714285717</ele><time>2026-04-25T07:13:48.999Z</time></trkpt><trkpt lat="45.77731577568294" lon="11.463602704180905"><ele>400.7142857142857</ele><time>2026-04-25T07:14:10.999Z</time></trkpt><trkpt lat="45.77737354241289" lon="11.463650155401645"><ele>403.28571428571433</ele><time>2026-04-25T07:14:16.999Z</time></trkpt><trkpt lat="45.77744899670196" lon="11.4636463089706"><ele>405.85714285714283</ele><time>2026-04-25T07:14:21.999Z</time></trkpt><trkpt lat="45.77751287016488" lon="11.463669152080481"><ele>408.42857142857144</ele><time>2026-04-25T07:14:27.999Z</time></trkpt><trkpt lat="45.77758203432205" lon="11.463684483540092"><ele>411.0</ele><time>2026-04-25T07:14:31.999Z</time></trkpt><trkpt lat="45.77763817383189" lon="11.46373312030311"><ele>412.57142857142856</ele><time>2026-04-25T07:14:36.999Z</time></trkpt><trkpt lat="45.777708170835936" lon="11.463749511171066"><ele>414.1428571428571</ele><time>2026-04-25T07:14:41.999Z</time></trkpt><trkpt lat="45.777769521810015" lon="11.463804515483778"><ele>415.7142857142857</ele><time>2026-04-25T07:14:46.999Z</time></trkpt><trkpt lat="45.77782304485969" lon="11.463879369495293"><ele>417.2857142857143</ele><time>2026-04-25T07:14:52.999Z</time></trkpt><trkpt lat="45.777880470548325" lon="11.463932764521783"><ele>418.8571428571429</ele><time>2026-04-25T07:14:57.999Z</time></trkpt><trkpt lat="45.777947256474945" lon="11.463982099610288"><ele>420.42857142857144</ele><time>2026-04-25T07:15:03.999Z</time></trkpt><trkpt lat="45.77799837355876" lon="11.464052971796757"><ele>422.0</ele><time>2026-04-25T07:15:09.999Z</time></trkpt><trkpt lat="45.778039775084956" lon="11.464125924485671"><ele>422.0</ele><time>2026-04-25T07:15:14.999Z</time></trkpt><trkpt lat="45.778097866255294" lon="11.464191334739986"><ele>422.0</ele><time>2026-04-25T07:15:20.999Z</time></trkpt><trkpt lat="45.77813567520649" lon="11.464272789188831"><ele>422.0</ele><time>2026-04-25T07:15:26.999Z</time></trkpt><trkpt lat="45.77819334986198" lon="11.464324698040274"><ele>422.0</ele><time>2026-04-25T07:15:34.999Z</time></trkpt><trkpt lat="45.778224977988486" lon="11.46442191027268"><ele>422.0</ele><time>2026-04-25T07:15:43.999Z</time></trkpt><trkpt lat="45.77817630921165" lon="11.46448052918126"><ele>422.0</ele><time>2026-04-25T07:15:59.999Z</time></trkpt><trkpt lat="45.77822240330504" lon="11.464550251040578"><ele>422.0</ele><time>2026-04-25T07:16:07.999Z</time></trkpt><trkpt lat="45.77822472743411" lon="11.464643430969396"><ele>421.7142857142857</ele><time>2026-04-25T07:16:18.999Z</time></trkpt><trkpt lat="45.778216937932314" lon="11.46473701927857"><ele>421.42857142857144</ele><time>2026-04-25T07:16:31.999Z</time></trkpt><trkpt lat="45.778190694730796" lon="11.46482591744433"><ele>421.1428571428571</ele><time>2026-04-25T07:16:40.999Z</time></trkpt><trkpt lat="45.77815290018873" lon="11.464898173216726"><ele>420.8571428571429</ele><time>2026-04-25T07:16:47.999Z</time></trkpt><trkpt lat="45.77808487688575" lon="11.46486133260463"><ele>420.57142857142856</ele><time>2026-04-25T07:16:55.999Z</time></trkpt><trkpt lat="45.77801936193607" lon="11.464870874208696"><ele>420.2857142857143</ele><time>2026-04-25T07:17:02.999Z</time></trkpt><trkpt lat="45.77795278264028" lon="11.464915150268068"><ele>420.0</ele><time>2026-04-25T07:17:08.999Z</time></trkpt><trkpt lat="45.77789036440982" lon="11.464951170959411"><ele>420.0</ele><time>2026-04-25T07:17:14.999Z</time></trkpt><trkpt lat="45.77783362340784" lon="11.464998669882695"><ele>420.0</ele><time>2026-04-25T07:17:20.999Z</time></trkpt><trkpt lat="45.77776757539125" lon="11.465050201151472"><ele>420.0</ele><time>2026-04-25T07:17:26.999Z</time></trkpt><trkpt lat="45.77770524900106" lon="11.465072408822362"><ele>420.0</ele><time>2026-04-25T07:17:32.999Z</time></trkpt><trkpt lat="45.77764242351576" lon="11.46508304305768"><ele>420.0</ele><time>2026-04-25T07:17:38.999Z</time></trkpt><trkpt lat="45.777578691433" lon="11.465101540250275"><ele>420.0</ele><time>2026-04-25T07:17:44.999Z</time></trkpt><trkpt lat="45.77752105976011" lon="11.46514224454603"><ele>420.0</ele><time>2026-04-25T07:17:50.999Z</time></trkpt><trkpt lat="45.77749242805815" lon="11.465227019608536"><ele>418.57142857142856</ele><time>2026-04-25T07:17:55.999Z</time></trkpt><trkpt lat="45.7774472140216" lon="11.465306274966261"><ele>417.1428571428571</ele><time>2026-04-25T07:18:03.999Z</time></trkpt><trkpt lat="45.777387364699635" lon="11.465363048794309"><ele>415.7142857142857</ele><time>2026-04-25T07:18:09.999Z</time></trkpt><trkpt lat="45.777328897350024" lon="11.46542527028481"><ele>414.2857142857143</ele><time>2026-04-25T07:18:17.999Z</time></trkpt><trkpt lat="45.777291197091486" lon="11.465511596683386"><ele>412.85714285714283</ele><time>2026-04-25T07:18:25.999Z</time></trkpt><trkpt lat="45.777255967774664" lon="11.465588070948066"><ele>411.42857142857144</ele><time>2026-04-25T07:18:31.999Z</time></trkpt><trkpt lat="45.77721144160534" lon="11.465661482770846"><ele>410.0</ele><time>2026-04-25T07:18:37.999Z</time></trkpt><trkpt lat="45.77716904046118" lon="11.46574606328153"><ele>413.7142857142857</ele><time>2026-04-25T07:18:44.999Z</time></trkpt><trkpt lat="45.77714099956067" lon="11.46583494028495"><ele>417.4285714285714</ele><time>2026-04-25T07:18:51.999Z</time></trkpt><trkpt lat="45.77712191465343" lon="11.465923286441917"><ele>421.1428571428571</ele><time>2026-04-25T07:18:57.999Z</time></trkpt><trkpt lat="45.777082964892315" lon="11.46601521769532"><ele>424.8571428571429</ele><time>2026-04-25T07:19:03.999Z</time></trkpt><trkpt lat="45.777043981061375" lon="11.466089188139538"><ele>428.57142857142856</ele><time>2026-04-25T07:19:09.999Z</time></trkpt><trkpt lat="45.77699264616917" lon="11.466162336083228"><ele>432.2857142857143</ele><time>2026-04-25T07:19:16.999Z</time></trkpt><trkpt lat="45.77694637865074" lon="11.466249038331982"><ele>436.0</ele><time>2026-04-25T07:19:23.999Z</time></trkpt><trkpt lat="45.77692056011025" lon="11.466344773362703"><ele>438.42857142857144</ele><time>2026-04-25T07:19:31.999Z</time></trkpt><trkpt lat="45.77695030924197" lon="11.466424890177043"><ele>440.8571428571429</ele><time>2026-04-25T07:19:38.999Z</time></trkpt><trkpt lat="45.777003302669364" lon="11.466478735440262"><ele>443.2857142857142</ele><time>2026-04-25T07:19:44.999Z</time></trkpt><trkpt lat="45.77705950199577" lon="11.46653921239659"><ele>445.71428571428567</ele><time>2026-04-25T07:19:54.999Z</time></trkpt><trkpt lat="45.77710610916589" lon="11.466609182304692"><ele>448.1428571428571</ele><time>2026-04-25T07:20:05.999Z</time></trkpt><trkpt lat="45.777060231703764" lon="11.466671629325086"><ele>450.5714285714285</ele><time>2026-04-25T07:20:21.999Z</time></trkpt><trkpt lat="45.777051568344405" lon="11.466775386331348"><ele>452.99999999999994</ele><time>2026-04-25T07:20:31.999Z</time></trkpt><trkpt lat="45.77708701250604" lon="11.466855526825178"><ele>452.99999999999994</ele><time>2026-04-25T07:20:40Z</time></trkpt><trkpt lat="45.77711826014133" lon="11.46693644219727"><ele>453.0</ele><time>2026-04-25T07:20:48Z</time></trkpt><trkpt lat="45.77714249477644" lon="11.467025854404563"><ele>452.99999999999994</ele><time>2026-04-25T07:20:56Z</time></trkpt><trkpt lat="45.77715658129308" lon="11.467118578435342"><ele>452.99999999999994</ele><time>2026-04-25T07:21:06Z</time></trkpt><trkpt lat="45.77717633423482" lon="11.467221357967125"><ele>453.0</ele><time>2026-04-25T07:21:12Z</time></trkpt><trkpt lat="45.777199007194184" lon="11.467325133456876"><ele>452.99999999999994</ele><time>2026-04-25T07:21:18Z</time></trkpt><trkpt lat="45.777209057198796" lon="11.467424816001031"><ele>452.99999999999994</ele><time>2026-04-25T07:21:24Z</time></trkpt><trkpt lat="45.777231032312386" lon="11.467529722058881"><ele>452.99999999999994</ele><time>2026-04-25T07:21:30Z</time></trkpt><trkpt lat="45.77725303778723" lon="11.4676175491379"><ele>453.0</ele><time>2026-04-25T07:21:36Z</time></trkpt><trkpt lat="45.77728714288744" lon="11.467695236913935"><ele>452.99999999999994</ele><time>2026-04-25T07:22:02Z</time></trkpt><trkpt lat="45.77731869595854" lon="11.467779567490643"><ele>452.99999999999994</ele><time>2026-04-25T07:22:08Z</time></trkpt><trkpt lat="45.777355925030655" lon="11.46787703963722"><ele>453.0</ele><time>2026-04-25T07:22:15Z</time></trkpt><trkpt lat="45.777393634852466" lon="11.467955677638848"><ele>452.99999999999994</ele><time>2026-04-25T07:22:21Z</time></trkpt><trkpt lat="45.77742562209569" lon="11.468034110368631"><ele>452.99999999999994</ele><time>2026-04-25T07:22:26.999Z</time></trkpt><trkpt lat="45.77747945893782" lon="11.468104232181416"><ele>452.99999999999994</ele><time>2026-04-25T07:22:33.999Z</time></trkpt><trkpt lat="45.77752418504581" lon="11.468032840956564"><ele>453.0</ele><time>2026-04-25T07:22:43.999Z</time></trkpt><trkpt lat="45.77760057790607" lon="11.468014039752786"><ele>452.99999999999994</ele><time>2026-04-25T07:23:01Z</time></trkpt><trkpt lat="45.77766324457084" lon="11.468028378079875"><ele>452.99999999999994</ele><time>2026-04-25T07:23:09.999Z</time></trkpt><trkpt lat="45.777709554419125" lon="11.46809941193575"><ele>453.0</ele><time>2026-04-25T07:23:17.999Z</time></trkpt><trkpt lat="45.777769043480454" lon="11.46815602019478"><ele>452.99999999999994</ele><time>2026-04-25T07:23:27.999Z</time></trkpt><trkpt lat="45.77781007210004" lon="11.46822651579594"><ele>452.99999999999994</ele><time>2026-04-25T07:23:34.999Z</time></trkpt><trkpt lat="45.77785684053087" lon="11.468304005518057"><ele>458.42857142857133</ele><time>2026-04-25T07:23:43.999Z</time></trkpt><trkpt lat="45.777907587636534" lon="11.46838321493877"><ele>463.85714285714283</ele><time>2026-04-25T07:23:49.999Z</time></trkpt><trkpt lat="45.77793483144315" lon="11.46848141987979"><ele>469.2857142857142</ele><time>2026-04-25T07:23:56.999Z</time></trkpt><trkpt lat="45.77794786214283" lon="11.468574196313522"><ele>474.71428571428567</ele><time>2026-04-25T07:24:04.999Z</time></trkpt><trkpt lat="45.77797703752385" lon="11.468662994848659"><ele>480.1428571428571</ele><time>2026-04-25T07:24:17.999Z</time></trkpt><trkpt lat="45.77799037964829" lon="11.468768522191597"><ele>485.57142857142856</ele><time>2026-04-25T07:24:30.999Z</time></trkpt><trkpt lat="45.77797202855963" lon="11.468863153510693"><ele>491.0</ele><time>2026-04-25T07:24:36.999Z</time></trkpt><trkpt lat="45.77795520498956" lon="11.468958376870765"><ele>491.4285714285714</ele><time>2026-04-25T07:24:43.999Z</time></trkpt><trkpt lat="45.777926900108746" lon="11.46905465552596"><ele>491.8571428571428</ele><time>2026-04-25T07:24:49Z</time></trkpt><trkpt lat="45.777902298702685" lon="11.46913849992613"><ele>492.2857142857143</ele><time>2026-04-25T07:24:54Z</time></trkpt><trkpt lat="45.77786603612215" lon="11.469218297789817"><ele>492.71428571428567</ele><time>2026-04-25T07:25:33Z</time></trkpt><trkpt lat="45.777821119400414" lon="11.469290193302081"><ele>493.1428571428571</ele><time>2026-04-25T07:25:41Z</time></trkpt><trkpt lat="45.77775433702024" lon="11.469321076682053"><ele>493.57142857142856</ele><time>2026-04-25T07:25:47Z</time></trkpt><trkpt lat="45.77772882703408" lon="11.469236649737004"><ele>494.0</ele><time>2026-04-25T07:25:55Z</time></trkpt><trkpt lat="45.77772022720256" lon="11.469134882059697"><ele>487.7142857142857</ele><time>2026-04-25T07:26:01Z</time></trkpt><trkpt lat="45.77765631683091" lon="11.469107553951998"><ele>481.42857142857144</ele><time>2026-04-25T07:26:05Z</time></trkpt><trkpt lat="45.77760762142382" lon="11.46917647172535"><ele>475.14285714285717</ele><time>2026-04-25T07:26:10Z</time></trkpt><trkpt lat="45.777579169541596" lon="11.469261233583879"><ele>468.8571428571429</ele><time>2026-04-25T07:26:15Z</time></trkpt><trkpt lat="45.77753512398547" lon="11.469348694793506"><ele>462.57142857142856</ele><time>2026-04-25T07:26:21Z</time></trkpt><trkpt lat="45.777510021915724" lon="11.469445453901288"><ele>456.28571428571433</ele><time>2026-04-25T07:26:31.999Z</time></trkpt><trkpt lat="45.777451569051976" lon="11.469505224908877"><ele>450.00000000000006</ele><time>2026-04-25T07:26:36.999Z</time></trkpt><trkpt lat="45.77737948920954" lon="11.469513941193275"><ele>450.00000000000006</ele><time>2026-04-25T07:26:41.999Z</time></trkpt><trkpt lat="45.77732407632836" lon="11.469467767967538"><ele>450.0</ele><time>2026-04-25T07:26:47.999Z</time></trkpt><trkpt lat="45.77727896486214" lon="11.469389366690423"><ele>450.00000000000006</ele><time>2026-04-25T07:26:54Z</time></trkpt><trkpt lat="45.77724824218154" lon="11.469308719385712"><ele>450.00000000000006</ele><time>2026-04-25T07:26:59Z</time></trkpt><trkpt lat="45.77720789038509" lon="11.46922494236511"><ele>450.0</ele><time>2026-04-25T07:27:05Z</time></trkpt><trkpt lat="45.7772055827546" lon="11.469132288214519"><ele>450.00000000000006</ele><time>2026-04-25T07:27:13Z</time></trkpt><trkpt lat="45.7771495502937" lon="11.469074814648804"><ele>450.00000000000006</ele><time>2026-04-25T07:27:21Z</time></trkpt><trkpt lat="45.77713962918081" lon="11.469179031508169"><ele>450.00000000000006</ele><time>2026-04-25T07:27:28Z</time></trkpt><trkpt lat="45.77716065987079" lon="11.469284820526848"><ele>450.0</ele><time>2026-04-25T07:27:34Z</time></trkpt><trkpt lat="45.77713822350534" lon="11.469384691722787"><ele>450.00000000000006</ele><time>2026-04-25T07:27:39Z</time></trkpt><trkpt lat="45.77709957584166" lon="11.469465140139311"><ele>450.00000000000006</ele><time>2026-04-25T07:27:45Z</time></trkpt><trkpt lat="45.7770901213956" lon="11.46955683009529"><ele>450.0</ele><time>2026-04-25T07:27:49.999Z</time></trkpt><trkpt lat="45.77710782439263" lon="11.46964511849911"><ele>450.00000000000006</ele><time>2026-04-25T07:27:54.999Z</time></trkpt><trkpt lat="45.77710860618125" lon="11.469736822229384"><ele>450.00000000000006</ele><time>2026-04-25T07:27:59.999Z</time></trkpt><trkpt lat="45.77710085274608" lon="11.469828106769704"><ele>450.7142857142858</ele><time>2026-04-25T07:28:04.999Z</time></trkpt><trkpt lat="45.77707176512437" lon="11.469914326690933"><ele>451.42857142857144</ele><time>2026-04-25T07:28:10.999Z</time></trkpt><trkpt lat="45.77705815767579" lon="11.47001609734345"><ele>452.14285714285717</ele><time>2026-04-25T07:28:15.999Z</time></trkpt><trkpt lat="45.777016444019104" lon="11.47010505248513"><ele>452.8571428571429</ele><time>2026-04-25T07:28:21.999Z</time></trkpt><trkpt lat="45.77695354270116" lon="11.470159751211055"><ele>453.57142857142856</ele><time>2026-04-25T07:28:27.999Z</time></trkpt><trkpt lat="45.776880131814224" lon="11.470143375722778"><ele>454.2857142857143</ele><time>2026-04-25T07:28:37.999Z</time></trkpt><trkpt lat="45.77682054992368" lon="11.470113272222916"><ele>455.0</ele><time>2026-04-25T07:28:44.999Z</time></trkpt><trkpt lat="45.776754903890755" lon="11.470080698352426"><ele>451.2857142857143</ele><time>2026-04-25T07:28:52.999Z</time></trkpt><trkpt lat="45.77669520343258" lon="11.470041297366524"><ele>447.57142857142856</ele><time>2026-04-25T07:29:00.999Z</time></trkpt><trkpt lat="45.7766342231499" lon="11.46999529147069"><ele>443.8571428571429</ele><time>2026-04-25T07:29:07.999Z</time></trkpt><trkpt lat="45.77656642897898" lon="11.469969846501996"><ele>440.1428571428571</ele><time>2026-04-25T07:29:15.999Z</time></trkpt><trkpt lat="45.7765160086468" lon="11.469913795540375"><ele>436.42857142857144</ele><time>2026-04-25T07:29:21.999Z</time></trkpt><trkpt lat="45.7764934837948" lon="11.469821227513853"><ele>432.7142857142857</ele><time>2026-04-25T07:29:28.999Z</time></trkpt><trkpt lat="45.77647676334714" lon="11.469729922961946"><ele>429.0</ele><time>2026-04-25T07:29:34.999Z</time></trkpt><trkpt lat="45.776455610484994" lon="11.469625478692006"><ele>428.14285714285717</ele><time>2026-04-25T07:29:40.999Z</time></trkpt><trkpt lat="45.776441064712905" lon="11.469535685327271"><ele>427.28571428571433</ele><time>2026-04-25T07:29:46.999Z</time></trkpt><trkpt lat="45.776413076907524" lon="11.469451932192147"><ele>426.42857142857144</ele><time>2026-04-25T07:29:53.999Z</time></trkpt><trkpt lat="45.77635343666774" lon="11.469406988265689"><ele>425.57142857142856</ele><time>2026-04-25T07:29:59.999Z</time></trkpt><trkpt lat="45.77631636798993" lon="11.469326295200279"><ele>424.7142857142857</ele><time>2026-04-25T07:30:04.999Z</time></trkpt><trkpt lat="45.776272030916886" lon="11.46925447833184"><ele>423.85714285714283</ele><time>2026-04-25T07:30:08.999Z</time></trkpt><trkpt lat="45.77620252770969" lon="11.469216854067088"><ele>423.0</ele><time>2026-04-25T07:30:14.999Z</time></trkpt><trkpt lat="45.77613065131916" lon="11.469182034139378"><ele>423.0</ele><time>2026-04-25T07:30:19.999Z</time></trkpt><trkpt lat="45.776053305288976" lon="11.469155756753217"><ele>423.0</ele><time>2026-04-25T07:30:25.999Z</time></trkpt><trkpt lat="45.775986701758654" lon="11.469128256744638"><ele>423.0</ele><time>2026-04-25T07:30:29.999Z</time></trkpt><trkpt lat="45.77591918028835" lon="11.469095997646503"><ele>423.0</ele><time>2026-04-25T07:30:34.999Z</time></trkpt><trkpt lat="45.77584874476648" lon="11.469068509245172"><ele>423.0</ele><time>2026-04-25T07:30:39.999Z</time></trkpt><trkpt lat="45.77577962095606" lon="11.469045893114242"><ele>423.0</ele><time>2026-04-25T07:30:44.999Z</time></trkpt><trkpt lat="45.775709516825984" lon="11.469034057529278"><ele>423.0</ele><time>2026-04-25T07:30:49.999Z</time></trkpt><trkpt lat="45.77564752299664" lon="11.468997175726546"><ele>420.4285714285714</ele><time>2026-04-25T07:30:54.999Z</time></trkpt><trkpt lat="45.77558581965941" lon="11.468952217311195"><ele>417.8571428571429</ele><time>2026-04-25T07:31:00.999Z</time></trkpt><trkpt lat="45.775514172789954" lon="11.468984190346326"><ele>415.2857142857143</ele><time>2026-04-25T07:31:07Z</time></trkpt><trkpt lat="45.775447967703435" lon="11.468980898809901"><ele>412.71428571428567</ele><time>2026-04-25T07:31:20Z</time></trkpt><trkpt lat="45.775393926546364" lon="11.468934259467167"><ele>410.1428571428571</ele><time>2026-04-25T07:31:27Z</time></trkpt><trkpt lat="45.775332776961605" lon="11.468907014236214"><ele>407.57142857142856</ele><time>2026-04-25T07:31:33Z</time></trkpt><trkpt lat="45.77528310500355" lon="11.468964058070982"><ele>405.0</ele><time>2026-04-25T07:31:39Z</time></trkpt><trkpt lat="45.77521857629519" lon="11.468945187505724"><ele>402.4285714285714</ele><time>2026-04-25T07:31:46Z</time></trkpt><trkpt lat="45.775171841338185" lon="11.468871500929998"><ele>399.85714285714283</ele><time>2026-04-25T07:31:52Z</time></trkpt><trkpt lat="45.77514851591822" lon="11.468779133949276"><ele>397.2857142857143</ele><time>2026-04-25T07:31:59Z</time></trkpt><trkpt lat="45.77507926564001" lon="11.468740321929168"><ele>394.71428571428567</ele><time>2026-04-25T07:32:06Z</time></trkpt><trkpt lat="45.77500025840309" lon="11.468727653867688"><ele>392.14285714285717</ele><time>2026-04-25T07:32:11Z</time></trkpt><trkpt lat="45.774933159428485" lon="11.468682042375873"><ele>389.57142857142856</ele><time>2026-04-25T07:32:16Z</time></trkpt><trkpt lat="45.77486896512689" lon="11.468636372748014"><ele>387.0</ele><time>2026-04-25T07:32:22Z</time></trkpt><trkpt lat="45.77480552595211" lon="11.468601939419964"><ele>385.57142857142856</ele><time>2026-04-25T07:32:28Z</time></trkpt><trkpt lat="45.77473929188152" lon="11.468591319050425"><ele>384.14285714285717</ele><time>2026-04-25T07:32:34Z</time></trkpt><trkpt lat="45.77467980494225" lon="11.468634937146856"><ele>382.71428571428567</ele><time>2026-04-25T07:32:50Z</time></trkpt><trkpt lat="45.77461273500314" lon="11.46863902379137"><ele>381.2857142857143</ele><time>2026-04-25T07:32:55Z</time></trkpt><trkpt lat="45.77454901890943" lon="11.46865142529514"><ele>379.85714285714283</ele><time>2026-04-25T07:33:01Z</time></trkpt><trkpt lat="45.77448154105955" lon="11.468632858144534"><ele>378.4285714285714</ele><time>2026-04-25T07:35:58Z</time></trkpt><trkpt lat="45.77442017493733" lon="11.468593960705418"><ele>377.0</ele><time>2026-04-25T07:36:05Z</time></trkpt><trkpt lat="45.774366369374384" lon="11.46854347002582"><ele>374.99999999999994</ele><time>2026-04-25T07:36:09Z</time></trkpt><trkpt lat="45.774305491073" lon="11.468491157394212"><ele>373.0</ele><time>2026-04-25T07:36:14Z</time></trkpt><trkpt lat="45.774250319870276" lon="11.468445901305993"><ele>371.0</ele><time>2026-04-25T07:36:19Z</time></trkpt><trkpt lat="45.77418517572393" lon="11.468409818619124"><ele>369.0</ele><time>2026-04-25T07:36:25Z</time></trkpt><trkpt lat="45.77412144291319" lon="11.468362971945805"><ele>367.0</ele><time>2026-04-25T07:36:33Z</time></trkpt><trkpt lat="45.774063892824316" lon="11.468301744757758"><ele>364.99999999999994</ele><time>2026-04-25T07:36:39Z</time></trkpt><trkpt lat="45.774019252870055" lon="11.468224178379515"><ele>363.0</ele><time>2026-04-25T07:36:45Z</time></trkpt><trkpt lat="45.77397934985109" lon="11.468141997084388"><ele>362.99999999999994</ele><time>2026-04-25T07:36:49Z</time></trkpt><trkpt lat="45.77391846187061" lon="11.468075002750926"><ele>363.0</ele><time>2026-04-25T07:36:54Z</time></trkpt><trkpt lat="45.77385528651327" lon="11.468017449869931"><ele>363.0</ele><time>2026-04-25T07:36:59Z</time></trkpt><trkpt lat="45.773794880892154" lon="11.467976574299925"><ele>363.0</ele><time>2026-04-25T07:37:04Z</time></trkpt><trkpt lat="45.773752953533126" lon="11.467908728622142"><ele>363.0</ele><time>2026-04-25T07:37:09Z</time></trkpt><trkpt lat="45.77371888659296" lon="11.467825581574916"><ele>362.99999999999994</ele><time>2026-04-25T07:37:14Z</time></trkpt><trkpt lat="45.77367875528114" lon="11.467750395288578"><ele>363.0</ele><time>2026-04-25T07:37:22Z</time></trkpt><trkpt lat="45.77364213851277" lon="11.46766254274059"><ele>361.8333333333333</ele><time>2026-04-25T07:37:37Z</time></trkpt><trkpt lat="45.77359612135877" lon="11.467569139036014"><ele>360.6666666666667</ele><time>2026-04-25T07:37:44Z</time></trkpt><trkpt lat="45.77354745622365" lon="11.467500513228902"><ele>359.5</ele><time>2026-04-25T07:37:49Z</time></trkpt><trkpt lat="45.77348101388184" lon="11.467451181145355"><ele>358.33333333333337</ele><time>2026-04-25T07:37:54Z</time></trkpt><trkpt lat="45.773418402665115" lon="11.467357155984187"><ele>357.1666666666667</ele><time>2026-04-25T07:38:02Z</time></trkpt><trkpt lat="45.773351274809414" lon="11.467321347078682"><ele>356.0</ele><time>2026-04-25T07:38:07Z</time></trkpt><trkpt lat="45.773284065840365" lon="11.46728319966923"><ele>353.99999999999994</ele><time>2026-04-25T07:38:12Z</time></trkpt><trkpt lat="45.77320656641998" lon="11.46724184800148"><ele>352.0</ele><time>2026-04-25T07:38:18Z</time></trkpt><trkpt lat="45.77313494923677" lon="11.46719182529953"><ele>350.0</ele><time>2026-04-25T07:38:24Z</time></trkpt><trkpt lat="45.77308115469149" lon="11.467129493338435"><ele>348.0</ele><time>2026-04-25T07:38:31Z</time></trkpt><trkpt lat="45.77302792235061" lon="11.467069434716265"><ele>346.0</ele><time>2026-04-25T07:38:36Z</time></trkpt><trkpt lat="45.77296661829318" lon="11.467026844243684"><ele>343.99999999999994</ele><time>2026-04-25T07:38:43Z</time></trkpt><trkpt lat="45.77290914011126" lon="11.466984224290412"><ele>342.0</ele><time>2026-04-25T07:38:49Z</time></trkpt><trkpt lat="45.77285004193154" lon="11.46691400560436"><ele>340.4285714285714</ele><time>2026-04-25T07:39:00Z</time></trkpt><trkpt lat="45.77279815647196" lon="11.46685183251316"><ele>338.85714285714283</ele><time>2026-04-25T07:39:05Z</time></trkpt><trkpt lat="45.77274811376344" lon="11.466767243314834"><ele>337.2857142857143</ele><time>2026-04-25T07:39:10Z</time></trkpt><trkpt lat="45.772702681674716" lon="11.466692844040324"><ele>335.71428571428567</ele><time>2026-04-25T07:39:15Z</time></trkpt><trkpt lat="45.77267105410996" lon="11.466609814724148"><ele>334.1428571428571</ele><time>2026-04-25T07:39:20Z</time></trkpt><trkpt lat="45.772671627882474" lon="11.466514835177787"><ele>332.57142857142856</ele><time>2026-04-25T07:39:31Z</time></trkpt><trkpt lat="45.77265778976501" lon="11.466419509058804"><ele>331.0</ele><time>2026-04-25T07:39:45Z</time></trkpt><trkpt lat="45.772649496872134" lon="11.466307807174841"><ele>328.14285714285717</ele><time>2026-04-25T07:39:52Z</time></trkpt><trkpt lat="45.77266189579491" lon="11.466216376767203"><ele>325.2857142857143</ele><time>2026-04-25T07:39:58Z</time></trkpt><trkpt lat="45.7726301152084" lon="11.46612397386161"><ele>322.42857142857144</ele><time>2026-04-25T07:40:03Z</time></trkpt><trkpt lat="45.77258946595773" lon="11.466042987447953"><ele>319.57142857142856</ele><time>2026-04-25T07:40:08Z</time></trkpt><trkpt lat="45.77255140307968" lon="11.465960219685536"><ele>316.7142857142857</ele><time>2026-04-25T07:40:12Z</time></trkpt><trkpt lat="45.772519148744145" lon="11.465877510842207"><ele>313.85714285714283</ele><time>2026-04-25T07:40:16Z</time></trkpt><trkpt lat="45.77245241614691" lon="11.46582479964271"><ele>311.0</ele><time>2026-04-25T07:40:21Z</time></trkpt><trkpt lat="45.77240192692241" lon="11.465770874406294"><ele>311.0</ele><time>2026-04-25T07:40:26Z</time></trkpt><trkpt lat="45.772335902502824" lon="11.465722254351368"><ele>311.0</ele><time>2026-04-25T07:40:31Z</time></trkpt><trkpt lat="45.772276822855765" lon="11.465663237246318"><ele>311.0</ele><time>2026-04-25T07:40:36Z</time></trkpt><trkpt lat="45.77221158049267" lon="11.465619303851764"><ele>311.0</ele><time>2026-04-25T07:40:42Z</time></trkpt><trkpt lat="45.77214328968508" lon="11.465601150792855"><ele>311.0</ele><time>2026-04-25T07:40:48Z</time></trkpt><trkpt lat="45.77208276013525" lon="11.465567884417744"><ele>311.0</ele><time>2026-04-25T07:40:52Z</time></trkpt><trkpt lat="45.77201139556119" lon="11.465528899377471"><ele>311.0</ele><time>2026-04-25T07:40:56.999Z</time></trkpt><trkpt lat="45.771942251123505" lon="11.465507542341"><ele>311.0</ele><time>2026-04-25T07:41:01.999Z</time></trkpt><trkpt lat="45.771878095865674" lon="11.465484726953918"><ele>311.0</ele><time>2026-04-25T07:41:07.999Z</time></trkpt><trkpt lat="45.77181337593334" lon="11.465437980951222"><ele>311.0</ele><time>2026-04-25T07:41:12.999Z</time></trkpt><trkpt lat="45.77175610331942" lon="11.465380876163827"><ele>311.0</ele><time>2026-04-25T07:41:17.999Z</time></trkpt><trkpt lat="45.77170397158176" lon="11.465328303904334"><ele>311.0</ele><time>2026-04-25T07:41:22.999Z</time></trkpt><trkpt lat="45.77164961103355" lon="11.465253516883601"><ele>311.0</ele><time>2026-04-25T07:41:28.999Z</time></trkpt><trkpt lat="45.77159184876435" lon="11.465199398124547"><ele>311.0</ele><time>2026-04-25T07:41:34Z</time></trkpt><trkpt lat="45.77153641568708" lon="11.465155886820435"><ele>308.2857142857143</ele><time>2026-04-25T07:41:39Z</time></trkpt><trkpt lat="45.77148015874332" lon="11.465093658471734"><ele>305.5714285714286</ele><time>2026-04-25T07:41:46Z</time></trkpt><trkpt lat="45.771418137004794" lon="11.465048235494677"><ele>302.8571428571429</ele><time>2026-04-25T07:41:52Z</time></trkpt><trkpt lat="45.77135943783669" lon="11.46498125576053"><ele>300.1428571428571</ele><time>2026-04-25T07:41:57Z</time></trkpt><trkpt lat="45.771293527831176" lon="11.464953744884058"><ele>297.42857142857144</ele><time>2026-04-25T07:42:02Z</time></trkpt><trkpt lat="45.771219736084795" lon="11.464935193144141"><ele>294.7142857142857</ele><time>2026-04-25T07:42:07Z</time></trkpt><trkpt lat="45.77115149395862" lon="11.464963485805628"><ele>292.0</ele><time>2026-04-25T07:42:12Z</time></trkpt><trkpt lat="45.77107454200208" lon="11.464955809761609"><ele>291.42857142857144</ele><time>2026-04-25T07:42:17Z</time></trkpt><trkpt lat="45.77100638698385" lon="11.464906198451201"><ele>290.8571428571429</ele><time>2026-04-25T07:42:22Z</time></trkpt><trkpt lat="45.77095561117404" lon="11.464834218535628"><ele>290.28571428571433</ele><time>2026-04-25T07:42:27Z</time></trkpt><trkpt lat="45.77089401461943" lon="11.46477639044686"><ele>289.7142857142857</ele><time>2026-04-25T07:42:32Z</time></trkpt><trkpt lat="45.77082679641609" lon="11.464740359076076"><ele>289.14285714285717</ele><time>2026-04-25T07:42:37Z</time></trkpt><trkpt lat="45.770759802912984" lon="11.464690261414578"><ele>288.5714285714286</ele><time>2026-04-25T07:42:42Z</time></trkpt><trkpt lat="45.770715794583225" lon="11.464611482145667"><ele>288.0</ele><time>2026-04-25T07:42:47.999Z</time></trkpt><trkpt lat="45.77067703398107" lon="11.46452714702041"><ele>285.7142857142857</ele><time>2026-04-25T07:42:52.999Z</time></trkpt><trkpt lat="45.770636262912284" lon="11.464430931680745"><ele>283.42857142857144</ele><time>2026-04-25T07:42:57.999Z</time></trkpt><trkpt lat="45.77059875685432" lon="11.464353277985172"><ele>281.1428571428571</ele><time>2026-04-25T07:43:03.999Z</time></trkpt><trkpt lat="45.77054555083277" lon="11.464296393624831"><ele>278.8571428571429</ele><time>2026-04-25T07:43:07.999Z</time></trkpt><trkpt lat="45.770485205345736" lon="11.464255992892907"><ele>276.57142857142856</ele><time>2026-04-25T07:43:11.999Z</time></trkpt><trkpt lat="45.77042171187155" lon="11.464230035083997"><ele>274.2857142857143</ele><time>2026-04-25T07:43:15.999Z</time></trkpt><trkpt lat="45.77035832447137" lon="11.46419301052877"><ele>272.0</ele><time>2026-04-25T07:43:19.999Z</time></trkpt><trkpt lat="45.77028677915294" lon="11.464167790612866"><ele>271.99999999999994</ele><time>2026-04-25T07:43:24.999Z</time></trkpt><trkpt lat="45.770220794646384" lon="11.464121576983878"><ele>272.0</ele><time>2026-04-25T07:43:29.999Z</time></trkpt><trkpt lat="45.77014851397245" lon="11.464115229727822"><ele>272.0</ele><time>2026-04-25T07:43:34.999Z</time></trkpt><trkpt lat="45.77008473810528" lon="11.464092903213414"><ele>272.0</ele><time>2026-04-25T07:43:40Z</time></trkpt><trkpt lat="45.7700210131182" lon="11.464096677953457"><ele>272.0</ele><time>2026-04-25T07:43:44Z</time></trkpt><trkpt lat="45.76995085914643" lon="11.46414230050898"><ele>271.99999999999994</ele><time>2026-04-25T07:43:49Z</time></trkpt><trkpt lat="45.76989018317784" lon="11.46419865927231"><ele>272.0</ele><time>2026-04-25T07:43:54Z</time></trkpt><trkpt lat="45.76983842164769" lon="11.46427172967019"><ele>271.99999999999994</ele><time>2026-04-25T07:43:59Z</time></trkpt><trkpt lat="45.769786004161595" lon="11.464343519154479"><ele>272.0</ele><time>2026-04-25T07:44:04Z</time></trkpt><trkpt lat="45.769742181022934" lon="11.464418111734316"><ele>272.0</ele><time>2026-04-25T07:44:09Z</time></trkpt><trkpt lat="45.76970169757344" lon="11.464503437719175"><ele>272.0</ele><time>2026-04-25T07:44:14Z</time></trkpt><trkpt lat="45.76965492664255" lon="11.46457732436651"><ele>272.0</ele><time>2026-04-25T07:44:19Z</time></trkpt><trkpt lat="45.769621077949246" lon="11.46467128995294"><ele>271.99999999999994</ele><time>2026-04-25T07:44:24Z</time></trkpt><trkpt lat="45.76958074169042" lon="11.464754228864505"><ele>272.0</ele><time>2026-04-25T07:44:29Z</time></trkpt><trkpt lat="45.769558332312904" lon="11.464847950694555"><ele>272.99999999999994</ele><time>2026-04-25T07:44:34Z</time></trkpt><trkpt lat="45.76952594522712" lon="11.46494203779668"><ele>274.0</ele><time>2026-04-25T07:44:38.999Z</time></trkpt><trkpt lat="45.769512661778" lon="11.465042188619964"><ele>275.0</ele><time>2026-04-25T07:44:43.999Z</time></trkpt><trkpt lat="45.76950453735424" lon="11.465144324029222"><ele>276.0</ele><time>2026-04-25T07:44:49.999Z</time></trkpt><trkpt lat="45.7695075855057" lon="11.465248770285696"><ele>277.0</ele><time>2026-04-25T07:44:54.999Z</time></trkpt><trkpt lat="45.76949173845754" lon="11.465345388868894"><ele>277.99999999999994</ele><time>2026-04-25T07:45:03.999Z</time></trkpt><trkpt lat="45.76948137629536" lon="11.46544672033246"><ele>279.0</ele><time>2026-04-25T07:45:08.999Z</time></trkpt><trkpt lat="45.76948441774982" lon="11.465537729728712"><ele>279.1428571428571</ele><time>2026-04-25T07:45:12.999Z</time></trkpt><trkpt lat="45.76947648699931" lon="11.465642906047977"><ele>279.2857142857143</ele><time>2026-04-25T07:45:17.999Z</time></trkpt><trkpt lat="45.76945525527146" lon="11.46574771581093"><ele>279.42857142857144</ele><time>2026-04-25T07:45:22.999Z</time></trkpt><trkpt lat="45.76943333365535" lon="11.465833341031251"><ele>279.57142857142856</ele><time>2026-04-25T07:45:26.999Z</time></trkpt><trkpt lat="45.76940223225222" lon="11.465932777867273"><ele>279.7142857142857</ele><time>2026-04-25T07:45:31.999Z</time></trkpt><trkpt lat="45.76937152842819" lon="11.466021026895477"><ele>279.85714285714283</ele><time>2026-04-25T07:45:36.999Z</time></trkpt><trkpt lat="45.76935184506832" lon="11.466108023973876"><ele>280.0</ele><time>2026-04-25T07:45:41.999Z</time></trkpt><trkpt lat="45.76932050894308" lon="11.466204005368255"><ele>279.14285714285717</ele><time>2026-04-25T07:45:47Z</time></trkpt><trkpt lat="45.769296284313725" lon="11.466294368991973"><ele>278.2857142857143</ele><time>2026-04-25T07:45:52Z</time></trkpt><trkpt lat="45.76925023753473" lon="11.466362485557406"><ele>277.42857142857144</ele><time>2026-04-25T07:45:57Z</time></trkpt><trkpt lat="45.76917048306974" lon="11.46636041741962"><ele>276.57142857142856</ele><time>2026-04-25T07:46:02.999Z</time></trkpt><trkpt lat="45.769105209198855" lon="11.466301793192462"><ele>275.7142857142857</ele><time>2026-04-25T07:46:06.999Z</time></trkpt><trkpt lat="45.769054795130536" lon="11.466240264417625"><ele>274.8571428571429</ele><time>2026-04-25T07:46:08.999Z</time></trkpt><trkpt lat="45.76905807321044" lon="11.466139880421029"><ele>274.0</ele><time>2026-04-25T07:46:16.999Z</time></trkpt><trkpt lat="45.76904594338665" lon="11.466034859365877"><ele>273.42857142857144</ele><time>2026-04-25T07:46:21.999Z</time></trkpt><trkpt lat="45.76903987998713" lon="11.465929960395659"><ele>272.8571428571429</ele><time>2026-04-25T07:46:25.999Z</time></trkpt><trkpt lat="45.76901652737327" lon="11.465826719686927"><ele>272.2857142857143</ele><time>2026-04-25T07:46:30.999Z</time></trkpt><trkpt lat="45.76900378844416" lon="11.465730979482231"><ele>271.7142857142857</ele><time>2026-04-25T07:46:35.999Z</time></trkpt><trkpt lat="45.76900650375487" lon="11.465631348561752"><ele>271.1428571428571</ele><time>2026-04-25T07:46:40.999Z</time></trkpt><trkpt lat="45.769003537011045" lon="11.465532369270882"><ele>270.57142857142856</ele><time>2026-04-25T07:46:46.999Z</time></trkpt><trkpt lat="45.76900113767937" lon="11.465427491369386"><ele>270.0</ele><time>2026-04-25T07:46:51.999Z</time></trkpt><trkpt lat="45.768995631001154" lon="11.465318621989264"><ele>270.0</ele><time>2026-04-25T07:46:56.999Z</time></trkpt><trkpt lat="45.768981142825574" lon="11.465220736905039"><ele>270.0</ele><time>2026-04-25T07:47:01.999Z</time></trkpt><trkpt lat="45.76898511556192" lon="11.465129820692225"><ele>270.0</ele><time>2026-04-25T07:47:06.999Z</time></trkpt><trkpt lat="45.76895718745695" lon="11.465047864648081"><ele>270.0</ele><time>2026-04-25T07:47:12.999Z</time></trkpt><trkpt lat="45.768928933379755" lon="11.464959688952819"><ele>270.0</ele><time>2026-04-25T07:47:16.999Z</time></trkpt><trkpt lat="45.76893622562796" lon="11.46486424547421"><ele>270.0</ele><time>2026-04-25T07:47:21.999Z</time></trkpt><trkpt lat="45.768921934692855" lon="11.464750164153818"><ele>270.0</ele><time>2026-04-25T07:47:27.999Z</time></trkpt><trkpt lat="45.768935473195" lon="11.46465780303782"><ele>269.1428571428571</ele><time>2026-04-25T07:47:32.999Z</time></trkpt><trkpt lat="45.76891360590055" lon="11.46455777731123"><ele>268.2857142857143</ele><time>2026-04-25T07:47:36.999Z</time></trkpt><trkpt lat="45.76891690450716" lon="11.464466387635095"><ele>267.42857142857144</ele><time>2026-04-25T07:47:40.999Z</time></trkpt><trkpt lat="45.76892267529634" lon="11.46434562414905"><ele>266.57142857142856</ele><time>2026-04-25T07:47:47.999Z</time></trkpt><trkpt lat="45.76896757209778" lon="11.464279440087724"><ele>265.7142857142857</ele><time>2026-04-25T07:47:52.999Z</time></trkpt><trkpt lat="45.76901357972331" lon="11.464208336852046"><ele>264.85714285714283</ele><time>2026-04-25T07:47:58.999Z</time></trkpt><trkpt lat="45.769066411156146" lon="11.46415456422473"><ele>264.0</ele><time>2026-04-25T07:48:03.999Z</time></trkpt><trkpt lat="45.76912474229045" lon="11.464092976831342"><ele>264.0</ele><time>2026-04-25T07:48:09.999Z</time></trkpt><trkpt lat="45.7691707013232" lon="11.464017286449952"><ele>264.0</ele><time>2026-04-25T07:48:15.999Z</time></trkpt><trkpt lat="45.769218170361725" lon="11.463956623378115"><ele>264.0</ele><time>2026-04-25T07:48:20.999Z</time></trkpt><trkpt lat="45.76925336153551" lon="11.463881283076157"><ele>264.0</ele><time>2026-04-25T07:48:25.999Z</time></trkpt><trkpt lat="45.76930750289668" lon="11.463819929568137"><ele>264.0</ele><time>2026-04-25T07:48:30.999Z</time></trkpt><trkpt lat="45.769364929522865" lon="11.463746855561535"><ele>264.0</ele><time>2026-04-25T07:48:35.999Z</time></trkpt><trkpt lat="45.769413871447625" lon="11.463684651252715"><ele>264.0</ele><time>2026-04-25T07:48:40.999Z</time></trkpt><trkpt lat="45.76947157387921" lon="11.463621173145459"><ele>262.1428571428571</ele><time>2026-04-25T07:48:45.999Z</time></trkpt><trkpt lat="45.76953826470264" lon="11.46358299281324"><ele>260.2857142857143</ele><time>2026-04-25T07:48:50.999Z</time></trkpt><trkpt lat="45.769608922910756" lon="11.463550435250779"><ele>258.42857142857144</ele><time>2026-04-25T07:48:55.999Z</time></trkpt><trkpt lat="45.769669390602154" lon="11.46348972193961"><ele>256.57142857142856</ele><time>2026-04-25T07:49:01.999Z</time></trkpt><trkpt lat="45.76971585619523" lon="11.46342526299727"><ele>254.71428571428572</ele><time>2026-04-25T07:49:06.999Z</time></trkpt><trkpt lat="45.76978826617306" lon="11.463400195531822"><ele>252.85714285714283</ele><time>2026-04-25T07:49:13.999Z</time></trkpt><trkpt lat="45.769855115622946" lon="11.463344842193349"><ele>250.99999999999997</ele><time>2026-04-25T07:49:19.999Z</time></trkpt><trkpt lat="45.769891718604065" lon="11.46326815439299"><ele>250.99999999999997</ele><time>2026-04-25T07:49:25.999Z</time></trkpt><trkpt lat="45.76996773003081" lon="11.46328779955927"><ele>251.0</ele><time>2026-04-25T07:49:33.999Z</time></trkpt><trkpt lat="45.770037969191584" lon="11.463303208006018"><ele>250.99999999999997</ele><time>2026-04-25T07:49:38.999Z</time></trkpt><trkpt lat="45.7701064540976" lon="11.46331563467902"><ele>250.99999999999997</ele><time>2026-04-25T07:49:43.999Z</time></trkpt><trkpt lat="45.77016537569567" lon="11.463349220350366"><ele>251.0</ele><time>2026-04-25T07:49:47.999Z</time></trkpt><trkpt lat="45.77022540236409" lon="11.46331618994918"><ele>250.99999999999997</ele><time>2026-04-25T07:49:51.999Z</time></trkpt><trkpt lat="45.77030183788048" lon="11.46333837032134"><ele>250.99999999999997</ele><time>2026-04-25T07:49:56.999Z</time></trkpt><trkpt lat="45.770367842859535" lon="11.463333445300814"><ele>251.1428571428571</ele><time>2026-04-25T07:50:01.999Z</time></trkpt><trkpt lat="45.77043679364371" lon="11.463329539913484"><ele>251.28571428571428</ele><time>2026-04-25T07:50:06.999Z</time></trkpt><trkpt lat="45.77050491150246" lon="11.463346011672794"><ele>251.42857142857142</ele><time>2026-04-25T07:50:12.999Z</time></trkpt><trkpt lat="45.770569891094844" lon="11.463366364310797"><ele>251.57142857142856</ele><time>2026-04-25T07:50:17.999Z</time></trkpt><trkpt lat="45.770624266800624" lon="11.463423781849366"><ele>251.71428571428572</ele><time>2026-04-25T07:50:23.999Z</time></trkpt><trkpt lat="45.770693101182715" lon="11.463418377049914"><ele>251.85714285714286</ele><time>2026-04-25T07:50:28.999Z</time></trkpt><trkpt lat="45.77076172403948" lon="11.463435858861498"><ele>252.0</ele><time>2026-04-25T07:50:33.999Z</time></trkpt><trkpt lat="45.770830616402264" lon="11.463421490545368"><ele>252.0</ele><time>2026-04-25T07:50:39.999Z</time></trkpt><trkpt lat="45.77090460801205" lon="11.463394880099807"><ele>252.0</ele><time>2026-04-25T07:50:46.999Z</time></trkpt><trkpt lat="45.77096606711433" lon="11.463366526245345"><ele>252.0</ele><time>2026-04-25T07:50:51.999Z</time></trkpt><trkpt lat="45.77102370307654" lon="11.46332249152172"><ele>252.0</ele><time>2026-04-25T07:50:56.999Z</time></trkpt><trkpt lat="45.771070183313" lon="11.463246398960624"><ele>252.0</ele><time>2026-04-25T07:51:01.999Z</time></trkpt><trkpt lat="45.77110580796406" lon="11.46314935636472"><ele>252.0</ele><time>2026-04-25T07:51:07.999Z</time></trkpt><trkpt lat="45.77114093824271" lon="11.463064338378004"><ele>252.0</ele><time>2026-04-25T07:51:12.999Z</time></trkpt><trkpt lat="45.77117816014522" lon="11.462979815393487"><ele>253.57142857142856</ele><time>2026-04-25T07:51:17.999Z</time></trkpt><trkpt lat="45.77119751845165" lon="11.462879706750359"><ele>255.14285714285714</ele><time>2026-04-25T07:51:23.999Z</time></trkpt><trkpt lat="45.77121403822698" lon="11.462784717718565"><ele>256.7142857142857</ele><time>2026-04-25T07:51:28.999Z</time></trkpt><trkpt lat="45.77122272616287" lon="11.462687702085258"><ele>258.2857142857143</ele><time>2026-04-25T07:51:33.999Z</time></trkpt><trkpt lat="45.7712236885659" lon="11.462592195650652"><ele>259.85714285714283</ele><time>2026-04-25T07:51:38.999Z</time></trkpt><trkpt lat="45.7712296923391" lon="11.462498106814415"><ele>261.42857142857144</ele><time>2026-04-25T07:51:43.999Z</time></trkpt><trkpt lat="45.77124513502897" lon="11.46240342485072"><ele>263.0</ele><time>2026-04-25T07:51:48.999Z</time></trkpt><trkpt lat="45.771256499294616" lon="11.462306738024504"><ele>263.0</ele><time>2026-04-25T07:51:53.999Z</time></trkpt><trkpt lat="45.771297344167486" lon="11.462220831592084"><ele>263.0</ele><time>2026-04-25T07:51:59Z</time></trkpt><trkpt lat="45.771333594871436" lon="11.462131460091046"><ele>263.0</ele><time>2026-04-25T07:52:04Z</time></trkpt><trkpt lat="45.77134835707178" lon="11.462028269164936"><ele>263.0</ele><time>2026-04-25T07:52:09Z</time></trkpt><trkpt lat="45.771379994324505" lon="11.461939574773972"><ele>263.0</ele><time>2026-04-25T07:52:14Z</time></trkpt><trkpt lat="45.77141315227641" lon="11.461851663228119"><ele>263.0</ele><time>2026-04-25T07:52:19Z</time></trkpt><trkpt lat="45.77143688423389" lon="11.461762686774197"><ele>263.0</ele><time>2026-04-25T07:52:24Z</time></trkpt><trkpt lat="45.77147733105649" lon="11.461677721229988"><ele>262.1428571428571</ele><time>2026-04-25T07:52:28.999Z</time></trkpt><trkpt lat="45.771497215599716" lon="11.461584167778845"><ele>261.2857142857143</ele><time>2026-04-25T07:52:33.999Z</time></trkpt><trkpt lat="45.77152296888694" lon="11.461465654785105"><ele>260.42857142857144</ele><time>2026-04-25T07:52:39.999Z</time></trkpt><trkpt lat="45.77155830916161" lon="11.461381937859596"><ele>259.57142857142856</ele><time>2026-04-25T07:52:44.999Z</time></trkpt><trkpt lat="45.77159488885283" lon="11.461302368837869"><ele>258.7142857142857</ele><time>2026-04-25T07:52:49.999Z</time></trkpt><trkpt lat="45.771636664821635" lon="11.461228550861309"><ele>257.85714285714283</ele><time>2026-04-25T07:52:54.999Z</time></trkpt><trkpt lat="45.771676868185544" lon="11.461147201879575"><ele>257.0</ele><time>2026-04-25T07:52:59.999Z</time></trkpt><trkpt lat="45.77171516208009" lon="11.461072072234165"><ele>257.85714285714283</ele><time>2026-04-25T07:53:04.999Z</time></trkpt><trkpt lat="45.77175587432416" lon="11.460996629549552"><ele>258.7142857142857</ele><time>2026-04-25T07:53:09.999Z</time></trkpt><trkpt lat="45.77179712101431" lon="11.460919841659349"><ele>259.57142857142856</ele><time>2026-04-25T07:53:14.999Z</time></trkpt><trkpt lat="45.77183868393948" lon="11.460841549437783"><ele>260.42857142857144</ele><time>2026-04-25T07:53:19.999Z</time></trkpt><trkpt lat="45.77188357614588" lon="11.460772030716257"><ele>261.2857142857143</ele><time>2026-04-25T07:53:25.999Z</time></trkpt><trkpt lat="45.771905126805166" lon="11.460680041695566"><ele>262.1428571428571</ele><time>2026-04-25T07:53:30.999Z</time></trkpt><trkpt lat="45.77196153058941" lon="11.460603837355146"><ele>263.0</ele><time>2026-04-25T07:53:35.999Z</time></trkpt><trkpt lat="45.77201967103517" lon="11.460538651660917"><ele>263.0</ele><time>2026-04-25T07:53:40.999Z</time></trkpt><trkpt lat="45.772086202191964" lon="11.460539225802211"><ele>263.0</ele><time>2026-04-25T07:53:44.999Z</time></trkpt><trkpt lat="45.77215497694724" lon="11.460499066053092"><ele>263.0</ele><time>2026-04-25T07:53:50.999Z</time></trkpt><trkpt lat="45.77222416679252" lon="11.46047289660704"><ele>263.0</ele><time>2026-04-25T07:53:57.999Z</time></trkpt><trkpt lat="45.77229710426645" lon="11.460471005280734"><ele>263.0</ele><time>2026-04-25T07:54:04.999Z</time></trkpt><trkpt lat="45.77236727687076" lon="11.460424451119302"><ele>263.0</ele><time>2026-04-25T07:54:12.999Z</time></trkpt><trkpt lat="45.77241511291946" lon="11.460357859782103"><ele>263.0</ele><time>2026-04-25T07:54:15.999Z</time></trkpt><trkpt lat="45.77246522374748" lon="11.460291206184994"><ele>263.57142857142856</ele><time>2026-04-25T07:54:19.999Z</time></trkpt><trkpt lat="45.77248184622152" lon="11.460184337605961"><ele>264.1428571428571</ele><time>2026-04-25T07:54:24.999Z</time></trkpt><trkpt lat="45.77250653003715" lon="11.460078633284002"><ele>264.7142857142857</ele><time>2026-04-25T07:54:29.999Z</time></trkpt><trkpt lat="45.77253115911579" lon="11.45999417037298"><ele>265.2857142857143</ele><time>2026-04-25T07:54:35.999Z</time></trkpt><trkpt lat="45.77258676740091" lon="11.459921714237344"><ele>265.8571428571429</ele><time>2026-04-25T07:54:40.999Z</time></trkpt><trkpt lat="45.77263217355187" lon="11.459847484622399"><ele>266.42857142857144</ele><time>2026-04-25T07:54:46.999Z</time></trkpt><trkpt lat="45.77267129546636" lon="11.459769712360126"><ele>267.0</ele><time>2026-04-25T07:54:50.999Z</time></trkpt><trkpt lat="45.77269860354887" lon="11.459664163040847"><ele>267.00000000000006</ele><time>2026-04-25T07:54:55.999Z</time></trkpt><trkpt lat="45.77275424834794" lon="11.459619015524407"><ele>267.0</ele><time>2026-04-25T07:54:59.999Z</time></trkpt><trkpt lat="45.772777062032425" lon="11.459533973899443"><ele>267.0</ele><time>2026-04-25T07:55:04.999Z</time></trkpt><trkpt lat="45.772828307337114" lon="11.459478406733558"><ele>267.0</ele><time>2026-04-25T07:55:09.999Z</time></trkpt><trkpt lat="45.7728604112972" lon="11.459393434811917"><ele>267.0</ele><time>2026-04-25T07:55:15.999Z</time></trkpt><trkpt lat="45.77288459692521" lon="11.459293331468206"><ele>267.00000000000006</ele><time>2026-04-25T07:55:20.999Z</time></trkpt><trkpt lat="45.772913684265184" lon="11.459206051859889"><ele>267.0</ele><time>2026-04-25T07:55:25.999Z</time></trkpt><trkpt lat="45.77293969779674" lon="11.459118417059852"><ele>265.28571428571433</ele><time>2026-04-25T07:55:30.999Z</time></trkpt><trkpt lat="45.772973659776135" lon="11.459027870007514"><ele>263.57142857142856</ele><time>2026-04-25T07:55:35.999Z</time></trkpt><trkpt lat="45.7729822680441" lon="11.458933646911216"><ele>261.8571428571429</ele><time>2026-04-25T07:55:40.999Z</time></trkpt><trkpt lat="45.7730013933206" lon="11.458831756861315"><ele>260.14285714285717</ele><time>2026-04-25T07:55:45.999Z</time></trkpt><trkpt lat="45.77302839281947" lon="11.458730203647043"><ele>258.42857142857144</ele><time>2026-04-25T07:55:50.999Z</time></trkpt><trkpt lat="45.77308859176705" lon="11.458667765069292"><ele>256.7142857142857</ele><time>2026-04-25T07:55:55.999Z</time></trkpt><trkpt lat="45.77315474594543" lon="11.458630648218245"><ele>255.0</ele><time>2026-04-25T07:56:00.999Z</time></trkpt><trkpt lat="45.773225378754056" lon="11.458610809516498"><ele>254.14285714285717</ele><time>2026-04-25T07:56:05.999Z</time></trkpt><trkpt lat="45.773273946658854" lon="11.45854657136378"><ele>253.2857142857143</ele><time>2026-04-25T07:56:10.999Z</time></trkpt><trkpt lat="45.773328801006954" lon="11.45847802507602"><ele>252.42857142857144</ele><time>2026-04-25T07:56:15.999Z</time></trkpt><trkpt lat="45.77338659029486" lon="11.458421589678645"><ele>251.57142857142856</ele><time>2026-04-25T07:56:21Z</time></trkpt><trkpt lat="45.773447302731256" lon="11.458391280613522"><ele>250.7142857142857</ele><time>2026-04-25T07:56:26Z</time></trkpt><trkpt lat="45.77350308501373" lon="11.458322166922402"><ele>249.85714285714283</ele><time>2026-04-25T07:56:31Z</time></trkpt><trkpt lat="45.77357496194865" lon="11.458327445874692"><ele>249.0</ele><time>2026-04-25T07:56:38.999Z</time></trkpt><trkpt lat="45.77364666419483" lon="11.458320758738118"><ele>251.28571428571428</ele><time>2026-04-25T07:56:46.999Z</time></trkpt><trkpt lat="45.77371413813817" lon="11.458290198310973"><ele>253.57142857142856</ele><time>2026-04-25T07:56:52.999Z</time></trkpt><trkpt lat="45.77378339291499" lon="11.458300159029074"><ele>255.85714285714283</ele><time>2026-04-25T07:56:58.999Z</time></trkpt><trkpt lat="45.77385556371975" lon="11.458308314186116"><ele>258.1428571428571</ele><time>2026-04-25T07:57:05.999Z</time></trkpt><trkpt lat="45.77389486994026" lon="11.458227908854225"><ele>260.42857142857144</ele><time>2026-04-25T07:57:13.999Z</time></trkpt><trkpt lat="45.77395450356987" lon="11.458257360111002"><ele>262.71428571428567</ele><time>2026-04-25T07:57:19.999Z</time></trkpt><trkpt lat="45.77402224216888" lon="11.458275636118564"><ele>265.0</ele><time>2026-04-25T07:57:26.999Z</time></trkpt><trkpt lat="45.774083799670116" lon="11.45824674580063"><ele>264.99999999999994</ele><time>2026-04-25T07:57:33.999Z</time></trkpt><trkpt lat="45.77407785266629" lon="11.458153312500722"><ele>265.0</ele><time>2026-04-25T07:57:38.999Z</time></trkpt><trkpt lat="45.774070253958016" lon="11.458063063060743"><ele>265.0</ele><time>2026-04-25T07:57:48.999Z</time></trkpt><trkpt lat="45.77406933018042" lon="11.45797175992756"><ele>265.0</ele><time>2026-04-25T07:57:59.999Z</time></trkpt><trkpt lat="45.774072963495954" lon="11.457875190297004"><ele>265.0</ele><time>2026-04-25T07:58:11.999Z</time></trkpt><trkpt lat="45.774015341879476" lon="11.457815958746663"><ele>264.99999999999994</ele><time>2026-04-25T07:58:18Z</time></trkpt><trkpt lat="45.773952061109355" lon="11.457760919152793"><ele>265.0</ele><time>2026-04-25T07:58:24Z</time></trkpt><trkpt lat="45.77389049187355" lon="11.457703029998667"><ele>264.4285714285714</ele><time>2026-04-25T07:58:42Z</time></trkpt><trkpt lat="45.77384368801999" lon="11.457637398496809"><ele>263.85714285714283</ele><time>2026-04-25T07:58:48Z</time></trkpt><trkpt lat="45.77379634131719" lon="11.457574761485349"><ele>263.2857142857143</ele><time>2026-04-25T07:58:52Z</time></trkpt><trkpt lat="45.77374805999496" lon="11.457512130763224"><ele>262.71428571428567</ele><time>2026-04-25T07:58:57Z</time></trkpt><trkpt lat="45.7736953245891" lon="11.457449854067683"><ele>262.1428571428571</ele><time>2026-04-25T07:59:02Z</time></trkpt><trkpt lat="45.77365074861109" lon="11.457364713514515"><ele>261.57142857142856</ele><time>2026-04-25T07:59:07Z</time></trkpt><trkpt lat="45.77361558481163" lon="11.457282486333568"><ele>261.0</ele><time>2026-04-25T07:59:11.999Z</time></trkpt><trkpt lat="45.77356822679194" lon="11.457196779541952"><ele>260.0</ele><time>2026-04-25T07:59:17.999Z</time></trkpt><trkpt lat="45.77353004082485" lon="11.457112150282521"><ele>259.0</ele><time>2026-04-25T07:59:22.999Z</time></trkpt><trkpt lat="45.773470100708664" lon="11.457070228663051"><ele>258.0</ele><time>2026-04-25T07:59:27.999Z</time></trkpt><trkpt lat="45.77341227776433" lon="11.457024864625387"><ele>257.0</ele><time>2026-04-25T07:59:32.999Z</time></trkpt><trkpt lat="45.77336127632756" lon="11.456949304808324"><ele>256.0</ele><time>2026-04-25T07:59:38.999Z</time></trkpt><trkpt lat="45.773304363962644" lon="11.45689853028156"><ele>255.0</ele><time>2026-04-25T07:59:43.999Z</time></trkpt><trkpt lat="45.7732488420173" lon="11.456821595516486"><ele>254.0</ele><time>2026-04-25T07:59:49.999Z</time></trkpt><trkpt lat="45.77318804399992" lon="11.456768435720996"><ele>253.71428571428572</ele><time>2026-04-25T07:59:54.999Z</time></trkpt><trkpt lat="45.773114761500366" lon="11.456747739873416"><ele>253.42857142857142</ele><time>2026-04-25T08:00:05.999Z</time></trkpt><trkpt lat="45.77306719539469" lon="11.456824711290915"><ele>253.14285714285714</ele><time>2026-04-25T08:00:11.999Z</time></trkpt><trkpt lat="45.77300242371867" lon="11.456878084091025"><ele>252.85714285714286</ele><time>2026-04-25T08:00:17.999Z</time></trkpt><trkpt lat="45.77295741566338" lon="11.456801439479014"><ele>252.57142857142856</ele><time>2026-04-25T08:00:25Z</time></trkpt><trkpt lat="45.77294939123649" lon="11.45669649904913"><ele>252.28571428571428</ele><time>2026-04-25T08:00:31Z</time></trkpt><trkpt lat="45.77293987279569" lon="11.456592504790587"><ele>252.0</ele><time>2026-04-25T08:00:36Z</time></trkpt><trkpt lat="45.772933634696216" lon="11.456494319724479"><ele>252.0</ele><time>2026-04-25T08:00:42Z</time></trkpt><trkpt lat="45.772932500012544" lon="11.456402889798731"><ele>252.0</ele><time>2026-04-25T08:00:47Z</time></trkpt><trkpt lat="45.77292857527187" lon="11.456296201777967"><ele>252.0</ele><time>2026-04-25T08:00:53Z</time></trkpt><trkpt lat="45.772927159214525" lon="11.456183879331691"><ele>252.0</ele><time>2026-04-25T08:00:59Z</time></trkpt><trkpt lat="45.772931912273656" lon="11.456088369837218"><ele>252.0</ele><time>2026-04-25T08:01:04Z</time></trkpt><trkpt lat="45.77293710837921" lon="11.455993144917533"><ele>252.0</ele><time>2026-04-25T08:01:09Z</time></trkpt><trkpt lat="45.77294060228097" lon="11.4558969327751"><ele>252.0</ele><time>2026-04-25T08:01:14Z</time></trkpt><trkpt lat="45.77293725025617" lon="11.455797715571332"><ele>252.14285714285714</ele><time>2026-04-25T08:01:20Z</time></trkpt><trkpt lat="45.772933887569145" lon="11.455691434163375"><ele>252.28571428571428</ele><time>2026-04-25T08:01:25.999Z</time></trkpt><trkpt lat="45.772946872191014" lon="11.455598145998335"><ele>252.42857142857144</ele><time>2026-04-25T08:01:30.999Z</time></trkpt><trkpt lat="45.77294622828725" lon="11.455506452362915"><ele>252.57142857142858</ele><time>2026-04-25T08:01:35.999Z</time></trkpt><trkpt lat="45.77294206954532" lon="11.455409048944663"><ele>252.71428571428572</ele><time>2026-04-25T08:01:40.999Z</time></trkpt><trkpt lat="45.77294055095405" lon="11.455308089612231"><ele>252.8571428571429</ele><time>2026-04-25T08:01:46.999Z</time></trkpt><trkpt lat="45.77294732579934" lon="11.455217772259642"><ele>253.00000000000003</ele><time>2026-04-25T08:01:51.999Z</time></trkpt><trkpt lat="45.77295274689186" lon="11.455116027277665"><ele>253.28571428571433</ele><time>2026-04-25T08:01:56.999Z</time></trkpt><trkpt lat="45.77295106801336" lon="11.45502219944846"><ele>253.57142857142858</ele><time>2026-04-25T08:02:01.999Z</time></trkpt><trkpt lat="45.772938518547875" lon="11.454926900158362"><ele>253.8571428571429</ele><time>2026-04-25T08:02:06.999Z</time></trkpt><trkpt lat="45.77292237967425" lon="11.454822151307088"><ele>254.14285714285717</ele><time>2026-04-25T08:02:12.999Z</time></trkpt><trkpt lat="45.77292832845044" lon="11.4547263327665"><ele>254.42857142857144</ele><time>2026-04-25T08:02:17.999Z</time></trkpt><trkpt lat="45.772930872072465" lon="11.454633373782206"><ele>254.71428571428572</ele><time>2026-04-25T08:02:22.999Z</time></trkpt><trkpt lat="45.77292385324107" lon="11.454540933616961"><ele>255.0</ele><time>2026-04-25T08:02:27.999Z</time></trkpt><trkpt lat="45.77291776018958" lon="11.454436038896471"><ele>255.2857142857143</ele><time>2026-04-25T08:02:33Z</time></trkpt><trkpt lat="45.77291655907979" lon="11.454338582720421"><ele>255.5714285714286</ele><time>2026-04-25T08:02:38Z</time></trkpt><trkpt lat="45.77291712863589" lon="11.454229822388985"><ele>255.85714285714286</ele><time>2026-04-25T08:02:44Z</time></trkpt><trkpt lat="45.772909515475774" lon="11.454134094013169"><ele>256.14285714285717</ele><time>2026-04-25T08:02:49Z</time></trkpt><trkpt lat="45.77289493163582" lon="11.454032049841967"><ele>256.42857142857144</ele><time>2026-04-25T08:02:55Z</time></trkpt><trkpt lat="45.77289227699371" lon="11.453933718056852"><ele>256.7142857142857</ele><time>2026-04-25T08:03:00Z</time></trkpt><trkpt lat="45.772875096401364" lon="11.453843400774678"><ele>257.0</ele><time>2026-04-25T08:03:05Z</time></trkpt><trkpt lat="45.77284348643697" lon="11.45376121313189"><ele>257.0</ele><time>2026-04-25T08:03:10Z</time></trkpt><trkpt lat="45.77282521548312" lon="11.453674599134011"><ele>257.0</ele><time>2026-04-25T08:03:15Z</time></trkpt><trkpt lat="45.7728021725584" lon="11.453579285320068"><ele>257.0</ele><time>2026-04-25T08:03:19Z</time></trkpt><trkpt lat="45.77277445643655" lon="11.453481729301952"><ele>257.0</ele><time>2026-04-25T08:03:24Z</time></trkpt><trkpt lat="45.77276418985988" lon="11.453388780357512"><ele>257.0</ele><time>2026-04-25T08:03:28.999Z</time></trkpt><trkpt lat="45.772749822083476" lon="11.453293240790314"><ele>257.0</ele><time>2026-04-25T08:03:33.999Z</time></trkpt><trkpt lat="45.77275825279092" lon="11.453197930375193"><ele>257.0</ele><time>2026-04-25T08:03:38.999Z</time></trkpt><trkpt lat="45.772777913575915" lon="11.453098329464039"><ele>257.0</ele><time>2026-04-25T08:03:43.999Z</time></trkpt><trkpt lat="45.77279936663847" lon="11.453001288417452"><ele>257.0</ele><time>2026-04-25T08:03:48.999Z</time></trkpt><trkpt lat="45.77282244454873" lon="11.45290565600322"><ele>257.0</ele><time>2026-04-25T08:03:53.999Z</time></trkpt><trkpt lat="45.772831451510704" lon="11.452813438745537"><ele>257.0</ele><time>2026-04-25T08:03:58.999Z</time></trkpt><trkpt lat="45.77285606593303" lon="11.452726564404168"><ele>257.0</ele><time>2026-04-25T08:04:03.999Z</time></trkpt><trkpt lat="45.772877238442945" lon="11.452629644831964"><ele>257.0</ele><time>2026-04-25T08:04:08.999Z</time></trkpt><trkpt lat="45.77289762763383" lon="11.4525418033433"><ele>257.0</ele><time>2026-04-25T08:04:13.999Z</time></trkpt><trkpt lat="45.772920388636855" lon="11.452451498519123"><ele>257.2857142857143</ele><time>2026-04-25T08:04:18.999Z</time></trkpt><trkpt lat="45.772946731460095" lon="11.45235816436571"><ele>257.57142857142856</ele><time>2026-04-25T08:04:23.999Z</time></trkpt><trkpt lat="45.77296961110305" lon="11.452264779763043"><ele>257.8571428571429</ele><time>2026-04-25T08:04:28.999Z</time></trkpt><trkpt lat="45.77300436678573" lon="11.452176099730899"><ele>258.1428571428571</ele><time>2026-04-25T08:04:33.999Z</time></trkpt><trkpt lat="45.773032725644974" lon="11.452093704182825"><ele>258.42857142857144</ele><time>2026-04-25T08:04:39Z</time></trkpt><trkpt lat="45.77307104326008" lon="11.45200824314256"><ele>258.7142857142857</ele><time>2026-04-25T08:04:44Z</time></trkpt><trkpt lat="45.773112806510824" lon="11.45193247027393"><ele>259.0</ele><time>2026-04-25T08:04:49Z</time></trkpt><trkpt lat="45.773143555351496" lon="11.451838302513625"><ele>259.0</ele><time>2026-04-25T08:04:54Z</time></trkpt><trkpt lat="45.77318513497815" lon="11.451760651137436"><ele>259.0</ele><time>2026-04-25T08:04:59Z</time></trkpt><trkpt lat="45.77323223685917" lon="11.451690353956478"><ele>259.0</ele><time>2026-04-25T08:05:04Z</time></trkpt><trkpt lat="45.77325129715854" lon="11.451590695493193"><ele>259.0</ele><time>2026-04-25T08:05:09Z</time></trkpt><trkpt lat="45.77329708862037" lon="11.45152203302071"><ele>259.0</ele><time>2026-04-25T08:05:14Z</time></trkpt><trkpt lat="45.7733477329625" lon="11.451464059156221"><ele>259.0</ele><time>2026-04-25T08:05:19Z</time></trkpt><trkpt lat="45.77339483377468" lon="11.451388660204353"><ele>259.0</ele><time>2026-04-25T08:05:24.999Z</time></trkpt><trkpt lat="45.7734365016475" lon="11.451308858662005"><ele>259.14285714285717</ele><time>2026-04-25T08:05:29.999Z</time></trkpt><trkpt lat="45.7734984014396" lon="11.45126234151731"><ele>259.2857142857143</ele><time>2026-04-25T08:05:34.999Z</time></trkpt><trkpt lat="45.77355201418712" lon="11.451184314612657"><ele>259.42857142857144</ele><time>2026-04-25T08:05:40.999Z</time></trkpt><trkpt lat="45.773607165448944" lon="11.451125974193538"><ele>259.57142857142856</ele><time>2026-04-25T08:05:45.999Z</time></trkpt><trkpt lat="45.7736561000184" lon="11.451060444903211"><ele>259.7142857142857</ele><time>2026-04-25T08:05:50.999Z</time></trkpt><trkpt lat="45.773707824793085" lon="11.45099306527329"><ele>259.8571428571429</ele><time>2026-04-25T08:05:56.999Z</time></trkpt><trkpt lat="45.773752638059214" lon="11.450928305259017"><ele>260.0</ele><time>2026-04-25T08:06:01.999Z</time></trkpt><trkpt lat="45.773800696141514" lon="11.450863019469807"><ele>260.14285714285717</ele><time>2026-04-25T08:06:06.999Z</time></trkpt><trkpt lat="45.77385024898662" lon="11.450801449303027"><ele>260.2857142857143</ele><time>2026-04-25T08:06:11.999Z</time></trkpt><trkpt lat="45.77390175710514" lon="11.450748013043357"><ele>260.42857142857144</ele><time>2026-04-25T08:06:15.999Z</time></trkpt><trkpt lat="45.77395894618048" lon="11.450686218574674"><ele>260.57142857142856</ele><time>2026-04-25T08:06:20.999Z</time></trkpt><trkpt lat="45.7740117908463" lon="11.45061283832647"><ele>260.7142857142857</ele><time>2026-04-25T08:06:26.999Z</time></trkpt><trkpt lat="45.77405880874468" lon="11.450548770180697"><ele>260.8571428571429</ele><time>2026-04-25T08:06:36.999Z</time></trkpt><trkpt lat="45.774117356752235" lon="11.450497811259375"><ele>261.0</ele><time>2026-04-25T08:06:41Z</time></trkpt><trkpt lat="45.77416148304598" lon="11.450421419795179"><ele>261.14285714285717</ele><time>2026-04-25T08:06:46Z</time></trkpt><trkpt lat="45.774212765683785" lon="11.450350628009925"><ele>261.2857142857143</ele><time>2026-04-25T08:06:52Z</time></trkpt><trkpt lat="45.7742607682068" lon="11.450289115182695"><ele>261.42857142857144</ele><time>2026-04-25T08:06:57Z</time></trkpt><trkpt lat="45.77431368642681" lon="11.450225730238197"><ele>261.57142857142856</ele><time>2026-04-25T08:07:02Z</time></trkpt><trkpt lat="45.77436458209442" lon="11.45014393253059"><ele>261.7142857142857</ele><time>2026-04-25T08:07:07Z</time></trkpt><trkpt lat="45.774415539990294" lon="11.450086372267291"><ele>261.8571428571429</ele><time>2026-04-25T08:07:12Z</time></trkpt><trkpt lat="45.774467194965574" lon="11.450032051726248"><ele>262.0</ele><time>2026-04-25T08:07:17Z</time></trkpt><trkpt lat="45.774521276051615" lon="11.449963936542936"><ele>262.42857142857144</ele><time>2026-04-25T08:07:22.999Z</time></trkpt><trkpt lat="45.77456915568684" lon="11.449897797777407"><ele>262.8571428571429</ele><time>2026-04-25T08:07:27.999Z</time></trkpt><trkpt lat="45.774632883975315" lon="11.449834825974673"><ele>263.2857142857143</ele><time>2026-04-25T08:07:32.999Z</time></trkpt><trkpt lat="45.77467760917795" lon="11.44976925807399"><ele>263.7142857142857</ele><time>2026-04-25T08:07:37.999Z</time></trkpt><trkpt lat="45.77461724123477" lon="11.449696377489566"><ele>264.1428571428571</ele><time>2026-04-25T08:07:44.999Z</time></trkpt><trkpt lat="45.774594665333545" lon="11.449608044386352"><ele>264.57142857142856</ele><time>2026-04-25T08:07:49.999Z</time></trkpt><trkpt lat="45.774608324182694" lon="11.449517393592815"><ele>265.0</ele><time>2026-04-25T08:07:53.999Z</time></trkpt><trkpt lat="45.77467200372956" lon="11.449507922611755"><ele>264.99999999999994</ele><time>2026-04-25T08:07:59.999Z</time></trkpt><trkpt lat="45.77473465258315" lon="11.44954155820422"><ele>265.0</ele><time>2026-04-25T08:08:04.999Z</time></trkpt><trkpt lat="45.77480486227952" lon="11.449543711314925"><ele>265.0</ele><time>2026-04-25T08:08:09.999Z</time></trkpt><trkpt lat="45.77487596285255" lon="11.449518694176936"><ele>265.0</ele><time>2026-04-25T08:08:14.999Z</time></trkpt><trkpt lat="45.77494940647859" lon="11.44950225268956"><ele>265.0</ele><time>2026-04-25T08:08:19.999Z</time></trkpt><trkpt lat="45.775017459764584" lon="11.449493489671752"><ele>264.99999999999994</ele><time>2026-04-25T08:08:24.999Z</time></trkpt><trkpt lat="45.7750844510644" lon="11.449468293433535"><ele>265.0</ele><time>2026-04-25T08:08:29.999Z</time></trkpt><trkpt lat="45.77514216054433" lon="11.449402728832517"><ele>265.71428571428567</ele><time>2026-04-25T08:08:34.999Z</time></trkpt><trkpt lat="45.7751957460174" lon="11.449335100691552"><ele>266.42857142857144</ele><time>2026-04-25T08:08:39.999Z</time></trkpt><trkpt lat="45.77524899428645" lon="11.449270504286144"><ele>267.1428571428571</ele><time>2026-04-25T08:08:44.999Z</time></trkpt><trkpt lat="45.77531417101541" lon="11.449217047408565"><ele>267.85714285714283</ele><time>2026-04-25T08:08:51Z</time></trkpt><trkpt lat="45.77538159784657" lon="11.449204091014971"><ele>268.57142857142856</ele><time>2026-04-25T08:08:56Z</time></trkpt><trkpt lat="45.775447314340354" lon="11.449203422728601"><ele>269.2857142857143</ele><time>2026-04-25T08:09:01Z</time></trkpt><trkpt lat="45.775520855583814" lon="11.449225616868175"><ele>270.0</ele><time>2026-04-25T08:09:07Z</time></trkpt><trkpt lat="45.775591084010394" lon="11.449219058276242"><ele>270.0</ele><time>2026-04-25T08:09:12Z</time></trkpt><trkpt lat="45.77564583432796" lon="11.449169281546187"><ele>270.0</ele><time>2026-04-25T08:09:17Z</time></trkpt><trkpt lat="45.77568964746693" lon="11.449092724029079"><ele>270.0</ele><time>2026-04-25T08:09:22Z</time></trkpt><trkpt lat="45.775739260326425" lon="11.449011693453683"><ele>270.0</ele><time>2026-04-25T08:09:26.999Z</time></trkpt><trkpt lat="45.77577872656773" lon="11.448939044234008"><ele>270.0</ele><time>2026-04-25T08:09:31.999Z</time></trkpt><trkpt lat="45.77581454679319" lon="11.448864011733136"><ele>270.0</ele><time>2026-04-25T08:09:36.999Z</time></trkpt><trkpt lat="45.77586106520898" lon="11.448787665032855"><ele>270.0</ele><time>2026-04-25T08:09:41.999Z</time></trkpt><trkpt lat="45.77590010685865" lon="11.448709704429282"><ele>269.57142857142856</ele><time>2026-04-25T08:09:46.999Z</time></trkpt><trkpt lat="45.77594155945129" lon="11.44863561249393"><ele>269.1428571428571</ele><time>2026-04-25T08:09:51.999Z</time></trkpt><trkpt lat="45.775982661986504" lon="11.448554682714999"><ele>268.7142857142857</ele><time>2026-04-25T08:09:56.999Z</time></trkpt><trkpt lat="45.77601890878159" lon="11.448471742379544"><ele>268.2857142857143</ele><time>2026-04-25T08:10:01.999Z</time></trkpt><trkpt lat="45.7760602321527" lon="11.448397124052345"><ele>267.8571428571429</ele><time>2026-04-25T08:10:06.999Z</time></trkpt><trkpt lat="45.776100149737125" lon="11.448322378799764"><ele>267.42857142857144</ele><time>2026-04-25T08:10:11.999Z</time></trkpt><trkpt lat="45.77613832234047" lon="11.448245120617194"><ele>267.0</ele><time>2026-04-25T08:10:16.999Z</time></trkpt><trkpt lat="45.776130932530855" lon="11.448143249021472"><ele>267.00000000000006</ele><time>2026-04-25T08:10:21.999Z</time></trkpt><trkpt lat="45.776076822274746" lon="11.448064460707807"><ele>267.0</ele><time>2026-04-25T08:10:26.999Z</time></trkpt><trkpt lat="45.776012154479" lon="11.448017527924794"><ele>267.0</ele><time>2026-04-25T08:10:31.999Z</time></trkpt><trkpt lat="45.77596205558283" lon="11.447943208478355"><ele>267.0</ele><time>2026-04-25T08:10:36.999Z</time></trkpt><trkpt lat="45.77590768755579" lon="11.447891650192481"><ele>267.0</ele><time>2026-04-25T08:10:41.999Z</time></trkpt><trkpt lat="45.77584131081405" lon="11.447842545772385"><ele>267.00000000000006</ele><time>2026-04-25T08:10:46.999Z</time></trkpt><trkpt lat="45.77579556855829" lon="11.447780006420826"><ele>267.0</ele><time>2026-04-25T08:10:51.999Z</time></trkpt><trkpt lat="45.775738436390725" lon="11.44773885700767"><ele>266.42857142857144</ele><time>2026-04-25T08:10:57Z</time></trkpt><trkpt lat="45.77569258527911" lon="11.447675099782575"><ele>265.8571428571429</ele><time>2026-04-25T08:11:02Z</time></trkpt><trkpt lat="45.775635777142995" lon="11.447621589508481"><ele>265.2857142857143</ele><time>2026-04-25T08:11:07Z</time></trkpt><trkpt lat="45.77558102220616" lon="11.447556472930154"><ele>264.7142857142857</ele><time>2026-04-25T08:11:12Z</time></trkpt><trkpt lat="45.775519725001395" lon="11.447510396281972"><ele>264.1428571428571</ele><time>2026-04-25T08:11:17Z</time></trkpt><trkpt lat="45.775467423228626" lon="11.447454668561825"><ele>263.57142857142856</ele><time>2026-04-25T08:11:22Z</time></trkpt><trkpt lat="45.77541050484814" lon="11.447394276258771"><ele>263.0</ele><time>2026-04-25T08:11:26.999Z</time></trkpt><trkpt lat="45.77535789675496" lon="11.447331952182656"><ele>263.0</ele><time>2026-04-25T08:11:31.999Z</time></trkpt><trkpt lat="45.77531226023022" lon="11.44725989766946"><ele>263.0</ele><time>2026-04-25T08:11:36.999Z</time></trkpt><trkpt lat="45.77524978597643" lon="11.447213829867588"><ele>263.0</ele><time>2026-04-25T08:11:41.999Z</time></trkpt><trkpt lat="45.775193165895416" lon="11.447159748175496"><ele>263.0</ele><time>2026-04-25T08:11:46.999Z</time></trkpt><trkpt lat="45.7751401025284" lon="11.447104374006004"><ele>263.0</ele><time>2026-04-25T08:11:51.999Z</time></trkpt><trkpt lat="45.77508685399786" lon="11.447051109305407"><ele>263.0</ele><time>2026-04-25T08:11:56.999Z</time></trkpt><trkpt lat="45.77503190228196" lon="11.446995241860769"><ele>263.0</ele><time>2026-04-25T08:12:01.999Z</time></trkpt><trkpt lat="45.77497466237461" lon="11.44694360749399"><ele>263.42857142857144</ele><time>2026-04-25T08:12:06.999Z</time></trkpt><trkpt lat="45.77492244691994" lon="11.44688208176939"><ele>263.85714285714283</ele><time>2026-04-25T08:12:11.999Z</time></trkpt><trkpt lat="45.77486603972903" lon="11.446826151736689"><ele>264.2857142857143</ele><time>2026-04-25T08:12:16.999Z</time></trkpt><trkpt lat="45.77481126716829" lon="11.446770911114681"><ele>264.7142857142857</ele><time>2026-04-25T08:12:21.999Z</time></trkpt><trkpt lat="45.774753655238165" lon="11.446706738086444"><ele>265.1428571428571</ele><time>2026-04-25T08:12:26.999Z</time></trkpt><trkpt lat="45.77469213489408" lon="11.446648488019179"><ele>265.57142857142856</ele><time>2026-04-25T08:12:32.999Z</time></trkpt><trkpt lat="45.77463481579327" lon="11.446590887195883"><ele>266.0</ele><time>2026-04-25T08:12:37.999Z</time></trkpt><trkpt lat="45.77458559900096" lon="11.446528121808628"><ele>266.0</ele><time>2026-04-25T08:12:42.999Z</time></trkpt><trkpt lat="45.77453747024602" lon="11.4464594268817"><ele>266.0</ele><time>2026-04-25T08:12:47.999Z</time></trkpt><trkpt lat="45.77452982805626" lon="11.446353416035194"><ele>266.0</ele><time>2026-04-25T08:12:52.999Z</time></trkpt><trkpt lat="45.774469794961014" lon="11.446297721162166"><ele>266.0</ele><time>2026-04-25T08:12:57.999Z</time></trkpt><trkpt lat="45.774422096587756" lon="11.446225957275116"><ele>266.0</ele><time>2026-04-25T08:13:03Z</time></trkpt><trkpt lat="45.774389733708816" lon="11.446146693876212"><ele>266.0</ele><time>2026-04-25T08:13:08Z</time></trkpt><trkpt lat="45.77437845333963" lon="11.4460488088842"><ele>266.0</ele><time>2026-04-25T08:13:13Z</time></trkpt><trkpt lat="45.77440617423239" lon="11.445949282110373"><ele>266.0</ele><time>2026-04-25T08:13:18Z</time></trkpt><trkpt lat="45.77445691968758" lon="11.445894132504808"><ele>266.0</ele><time>2026-04-25T08:13:22Z</time></trkpt><trkpt lat="45.77452082334129" lon="11.445867211160511"><ele>266.0</ele><time>2026-04-25T08:13:26Z</time></trkpt><trkpt lat="45.77457979721923" lon="11.44581876825631"><ele>266.0</ele><time>2026-04-25T08:13:31Z</time></trkpt><trkpt lat="45.77464497396768" lon="11.445788959685819"><ele>266.0</ele><time>2026-04-25T08:13:36Z</time></trkpt><trkpt lat="45.774712928156596" lon="11.445744066725798"><ele>266.0</ele><time>2026-04-25T08:13:41.999Z</time></trkpt><trkpt lat="45.774775835839385" lon="11.445703371174616"><ele>266.0</ele><time>2026-04-25T08:13:46.999Z</time></trkpt><trkpt lat="45.77483792738632" lon="11.44565761880215"><ele>266.0</ele><time>2026-04-25T08:13:51.999Z</time></trkpt><trkpt lat="45.774901157796634" lon="11.445613626525411"><ele>266.0</ele><time>2026-04-25T08:13:56.999Z</time></trkpt><trkpt lat="45.77495723485996" lon="11.445542300414285"><ele>266.0</ele><time>2026-04-25T08:14:02.999Z</time></trkpt><trkpt lat="45.77501862251538" lon="11.445477204586517"><ele>266.0</ele><time>2026-04-25T08:14:08.999Z</time></trkpt><trkpt lat="45.77506336269127" lon="11.445397327670701"><ele>266.0</ele><time>2026-04-25T08:14:13.999Z</time></trkpt><trkpt lat="45.7751096715526" lon="11.445314083562346"><ele>266.0</ele><time>2026-04-25T08:14:19.999Z</time></trkpt><trkpt lat="45.77514062827065" lon="11.44522694189886"><ele>266.0</ele><time>2026-04-25T08:14:24.999Z</time></trkpt><trkpt lat="45.77517639647057" lon="11.445134323662899"><ele>266.14285714285717</ele><time>2026-04-25T08:14:29.999Z</time></trkpt><trkpt lat="45.77520690705612" lon="11.445042402991938"><ele>266.2857142857143</ele><time>2026-04-25T08:14:34.999Z</time></trkpt><trkpt lat="45.77523776813894" lon="11.444951051631476"><ele>266.42857142857144</ele><time>2026-04-25T08:14:39.999Z</time></trkpt><trkpt lat="45.77527946144342" lon="11.444862582606534"><ele>266.57142857142856</ele><time>2026-04-25T08:14:44.999Z</time></trkpt><trkpt lat="45.775309094442065" lon="11.444773874198525"><ele>266.7142857142857</ele><time>2026-04-25T08:14:49.999Z</time></trkpt><trkpt lat="45.775350836997184" lon="11.444687306903692"><ele>266.8571428571429</ele><time>2026-04-25T08:14:54.999Z</time></trkpt><trkpt lat="45.77537622780472" lon="11.44460261056599"><ele>267.0</ele><time>2026-04-25T08:14:59.999Z</time></trkpt><trkpt lat="45.775414037519774" lon="11.444519935316572"><ele>267.00000000000006</ele><time>2026-04-25T08:15:05Z</time></trkpt><trkpt lat="45.77543156217902" lon="11.444422642305907"><ele>267.0</ele><time>2026-04-25T08:15:10Z</time></trkpt><trkpt lat="45.77545882972404" lon="11.444338584065122"><ele>267.0</ele><time>2026-04-25T08:15:15Z</time></trkpt><trkpt lat="45.77546566985606" lon="11.444248363484396"><ele>267.0</ele><time>2026-04-25T08:15:19.999Z</time></trkpt><trkpt lat="45.77548396829906" lon="11.444149882634425"><ele>267.0</ele><time>2026-04-25T08:15:25.999Z</time></trkpt><trkpt lat="45.77550855415478" lon="11.444057783184844"><ele>267.00000000000006</ele><time>2026-04-25T08:15:30.999Z</time></trkpt><trkpt lat="45.77548228186189" lon="11.443967205458785"><ele>267.0</ele><time>2026-04-25T08:15:35.999Z</time></trkpt><trkpt lat="45.77543237193079" lon="11.443907358103083"><ele>267.00000000000006</ele><time>2026-04-25T08:15:40.999Z</time></trkpt><trkpt lat="45.775375156346826" lon="11.443845348849537"><ele>267.0</ele><time>2026-04-25T08:15:45.999Z</time></trkpt><trkpt lat="45.77531487970988" lon="11.44379143618945"><ele>267.0</ele><time>2026-04-25T08:15:50.999Z</time></trkpt><trkpt lat="45.77525599857303" lon="11.443732522292294"><ele>267.0</ele><time>2026-04-25T08:15:55.999Z</time></trkpt><trkpt lat="45.77520754447528" lon="11.443665715253545"><ele>267.0</ele><time>2026-04-25T08:16:00.999Z</time></trkpt><trkpt lat="45.77515539296338" lon="11.443608595461054"><ele>267.00000000000006</ele><time>2026-04-25T08:16:05.999Z</time></trkpt><trkpt lat="45.77510255573152" lon="11.44355912325775"><ele>267.0</ele><time>2026-04-25T08:16:10.999Z</time></trkpt><trkpt lat="45.77505241970473" lon="11.443497372890794"><ele>266.8571428571429</ele><time>2026-04-25T08:16:15.999Z</time></trkpt><trkpt lat="45.77499063600911" lon="11.443441349339826"><ele>266.7142857142857</ele><time>2026-04-25T08:16:21.999Z</time></trkpt><trkpt lat="45.77493803704292" lon="11.44337901975138"><ele>266.57142857142856</ele><time>2026-04-25T08:16:26.999Z</time></trkpt><trkpt lat="45.774879149666674" lon="11.443334170178957"><ele>266.42857142857144</ele><time>2026-04-25T08:16:31.999Z</time></trkpt><trkpt lat="45.77482516276799" lon="11.443279546734365"><ele>266.2857142857143</ele><time>2026-04-25T08:16:36.999Z</time></trkpt><trkpt lat="45.77475685441147" lon="11.443229342704178"><ele>266.14285714285717</ele><time>2026-04-25T08:16:42.999Z</time></trkpt><trkpt lat="45.774706582060716" lon="11.443167396528214"><ele>266.0</ele><time>2026-04-25T08:16:47.999Z</time></trkpt><trkpt lat="45.77469183995031" lon="11.443064516980272"><ele>266.0</ele><time>2026-04-25T08:16:53.999Z</time></trkpt></trkseg></trk></gpx>